PWSweather.com
Personal Weather Stations
Station Observations
EI4HQ
Cork Harbour, CobhIE

Cork HarbourCobhIE

Lat: 51.85, Lon: -8.29

Elevation: 252

Station Type: Davis Vantage Pro2

http://www.corkharbourweather.ie

High Low Average
Temperature 43.9°F6.6°C 33.4°F0.8°C 38.0°F3.3°C
Dew Point 40.6°F4.8°C 31.6°F-0.2°C 35.3°F1.8°C
Winds 10.0 mph 16.1 kmh 1.0 mph 1.6 kmh 4.0 mph WSW6.4 kmh WSW
Wind Gusts 18.0 mph29.0 kmh 3.0 mph4.8 kmh 10.0 mph16.1 kmh
Humidity 100% 79% 90%
Pressure 29.86 in1011.2 mb 29.61 in1002.7 mb -
Precipitation 0.11 in2.8 mm - -
Hour Temp Dew Point Humidity Winds Wind Gusts Pressure Precip Precip Rate Daily Precip Total
12:00 AM 34.5°F1.4°C 32.9°F0.5°C 94% 4.0 mph W6.4 kmh W 10.0 mph16.1 kmh 29.80 in1009.1 mb 0.00 in0.0 mm 0.00 in0.0 mm 0.00 in0.0 mm
12:03 AM 34.3°F1.3°C 32.9°F0.5°C 94% 3.0 mph W4.8 kmh W 9.0 mph14.5 kmh 29.80 in1009.1 mb 0.00 in0.0 mm 0.00 in0.0 mm 0.00 in0.0 mm
12:06 AM 34.3°F1.3°C 32.7°F0.4°C 94% 3.0 mph WSW4.8 kmh WSW 7.0 mph11.3 kmh 29.80 in1009.1 mb 0.00 in0.0 mm 0.00 in0.0 mm 0.00 in0.0 mm
12:09 AM 34.2°F1.2°C 32.5°F0.3°C 94% 3.0 mph WSW4.8 kmh WSW 7.0 mph11.3 kmh 29.80 in1009.1 mb 0.00 in0.0 mm 0.00 in0.0 mm 0.00 in0.0 mm
12:12 AM 34.0°F1.1°C 32.5°F0.3°C 94% 3.0 mph W4.8 kmh W 8.0 mph12.9 kmh 29.80 in1009.1 mb 0.00 in0.0 mm 0.00 in0.0 mm 0.00 in0.0 mm
12:15 AM 33.8°F1.0°C 32.2°F0.1°C 94% 4.0 mph W6.4 kmh W 8.0 mph12.9 kmh 29.80 in1009.1 mb 0.00 in0.0 mm 0.00 in0.0 mm 0.00 in0.0 mm
12:18 AM 33.6°F0.9°C 32.0°F0.0°C 94% 4.0 mph W6.4 kmh W 8.0 mph12.9 kmh 29.80 in1009.1 mb 0.00 in0.0 mm 0.00 in0.0 mm 0.00 in0.0 mm
12:21 AM 33.6°F0.9°C 32.2°F0.1°C 94% 4.0 mph W6.4 kmh W 8.0 mph12.9 kmh 29.80 in1009.1 mb 0.00 in0.0 mm 0.00 in0.0 mm 0.00 in0.0 mm
12:24 AM 33.8°F1.0°C 32.5°F0.3°C 95% 4.0 mph W6.4 kmh W 8.0 mph12.9 kmh 29.80 in1009.1 mb 0.00 in0.0 mm 0.00 in0.0 mm 0.00 in0.0 mm
12:27 AM 34.0°F1.1°C 32.5°F0.3°C 95% 4.0 mph W6.4 kmh W 8.0 mph12.9 kmh 29.81 in1009.5 mb 0.00 in0.0 mm 0.00 in0.0 mm 0.00 in0.0 mm
12:30 AM 34.0°F1.1°C 32.4°F0.2°C 94% 4.0 mph W6.4 kmh W 10.0 mph16.1 kmh 29.80 in1009.1 mb 0.00 in0.0 mm 0.00 in0.0 mm 0.00 in0.0 mm
12:33 AM 34.0°F1.1°C 32.4°F0.2°C 94% 4.0 mph WSW6.4 kmh WSW 10.0 mph16.1 kmh 29.80 in1009.1 mb 0.00 in0.0 mm 0.00 in0.0 mm 0.00 in0.0 mm
12:36 AM 34.0°F1.1°C 32.7°F0.4°C 95% 4.0 mph W6.4 kmh W 10.0 mph16.1 kmh 29.81 in1009.5 mb 0.00 in0.0 mm 0.00 in0.0 mm 0.00 in0.0 mm
12:39 AM 34.0°F1.1°C 32.7°F0.4°C 95% 4.0 mph WSW6.4 kmh WSW 13.0 mph20.9 kmh 29.81 in1009.5 mb 0.00 in0.0 mm 0.00 in0.0 mm 0.00 in0.0 mm
12:42 AM 34.2°F1.2°C 32.9°F0.5°C 95% 5.0 mph WSW8.0 kmh WSW 13.0 mph20.9 kmh 29.81 in1009.5 mb 0.00 in0.0 mm 0.00 in0.0 mm 0.00 in0.0 mm
12:45 AM 34.2°F1.2°C 32.9°F0.5°C 95% 5.0 mph WSW8.0 kmh WSW 13.0 mph20.9 kmh 29.81 in1009.5 mb 0.00 in0.0 mm 0.00 in0.0 mm 0.00 in0.0 mm
12:48 AM 34.2°F1.2°C 32.9°F0.5°C 95% 6.0 mph WSW9.7 kmh WSW 10.0 mph16.1 kmh 29.81 in1009.5 mb 0.00 in0.0 mm 0.00 in0.0 mm 0.00 in0.0 mm
12:51 AM 34.0°F1.1°C 32.7°F0.4°C 95% 6.0 mph WSW9.7 kmh WSW 10.0 mph16.1 kmh 29.81 in1009.5 mb 0.00 in0.0 mm 0.00 in0.0 mm 0.00 in0.0 mm
12:54 AM 34.0°F1.1°C 32.5°F0.3°C 94% 6.0 mph WSW9.7 kmh WSW 10.0 mph16.1 kmh 29.81 in1009.5 mb 0.00 in0.0 mm 0.00 in0.0 mm 0.00 in0.0 mm
12:57 AM 34.0°F1.1°C 32.5°F0.3°C 95% 6.0 mph WSW9.7 kmh WSW 10.0 mph16.1 kmh 29.81 in1009.5 mb 0.00 in0.0 mm 0.00 in0.0 mm 0.00 in0.0 mm
01:00 AM 34.0°F1.1°C 32.7°F0.4°C 95% 6.0 mph WSW9.7 kmh WSW 10.0 mph16.1 kmh 29.81 in1009.5 mb 0.00 in0.0 mm 0.00 in0.0 mm 0.00 in0.0 mm
01:03 AM 34.0°F1.1°C 32.5°F0.3°C 95% 6.0 mph WSW9.7 kmh WSW 10.0 mph16.1 kmh 29.81 in1009.5 mb 0.00 in0.0 mm 0.00 in0.0 mm 0.00 in0.0 mm
01:06 AM 34.0°F1.1°C 32.7°F0.4°C 95% 5.0 mph WSW8.0 kmh WSW 10.0 mph16.1 kmh 29.81 in1009.5 mb 0.00 in0.0 mm 0.00 in0.0 mm 0.00 in0.0 mm
01:09 AM 34.0°F1.1°C 32.5°F0.3°C 95% 5.0 mph WSW8.0 kmh WSW 10.0 mph16.1 kmh 29.81 in1009.5 mb 0.00 in0.0 mm 0.00 in0.0 mm 0.00 in0.0 mm
01:12 AM 33.8°F1.0°C 32.5°F0.3°C 95% 5.0 mph WSW8.0 kmh WSW 10.0 mph16.1 kmh 29.81 in1009.5 mb 0.00 in0.0 mm 0.00 in0.0 mm 0.00 in0.0 mm
01:15 AM 33.6°F0.9°C 32.2°F0.1°C 94% 5.0 mph WSW8.0 kmh WSW 10.0 mph16.1 kmh 29.81 in1009.5 mb 0.00 in0.0 mm 0.00 in0.0 mm 0.00 in0.0 mm
01:18 AM 33.6°F0.9°C 32.0°F0.0°C 94% 5.0 mph WSW8.0 kmh WSW 11.0 mph17.7 kmh 29.81 in1009.5 mb 0.00 in0.0 mm 0.00 in0.0 mm 0.00 in0.0 mm
01:21 AM 33.6°F0.9°C 32.4°F0.2°C 95% 5.0 mph W8.0 kmh W 11.0 mph17.7 kmh 29.81 in1009.5 mb 0.00 in0.0 mm 0.00 in0.0 mm 0.00 in0.0 mm
01:24 AM 33.6°F0.9°C 32.4°F0.2°C 95% 6.0 mph W9.7 kmh W 13.0 mph20.9 kmh 29.81 in1009.5 mb 0.00 in0.0 mm 0.00 in0.0 mm 0.00 in0.0 mm
01:27 AM 34.0°F1.1°C 32.7°F0.4°C 95% 7.0 mph W11.3 kmh W 14.0 mph22.5 kmh 29.81 in1009.5 mb 0.00 in0.0 mm 0.00 in0.0 mm 0.00 in0.0 mm
01:30 AM 34.2°F1.2°C 32.9°F0.5°C 95% 7.0 mph W11.3 kmh W 14.0 mph22.5 kmh 29.81 in1009.5 mb 0.00 in0.0 mm 0.00 in0.0 mm 0.00 in0.0 mm
01:33 AM 34.2°F1.2°C 32.9°F0.5°C 95% 6.0 mph W9.7 kmh W 14.0 mph22.5 kmh 29.81 in1009.5 mb 0.00 in0.0 mm 0.00 in0.0 mm 0.00 in0.0 mm
01:36 AM 34.3°F1.3°C 33.1°F0.6°C 95% 6.0 mph W9.7 kmh W 14.0 mph22.5 kmh 29.82 in1009.8 mb 0.00 in0.0 mm 0.00 in0.0 mm 0.00 in0.0 mm
01:39 AM 34.5°F1.4°C 33.3°F0.7°C 95% 6.0 mph W9.7 kmh W 14.0 mph22.5 kmh 29.82 in1009.8 mb 0.00 in0.0 mm 0.00 in0.0 mm 0.00 in0.0 mm
01:42 AM 34.5°F1.4°C 33.3°F0.7°C 95% 6.0 mph W9.7 kmh W 14.0 mph22.5 kmh 29.82 in1009.8 mb 0.00 in0.0 mm 0.00 in0.0 mm 0.00 in0.0 mm
01:45 AM 34.5°F1.4°C 33.3°F0.7°C 95% 6.0 mph W9.7 kmh W 14.0 mph22.5 kmh 29.82 in1009.8 mb 0.00 in0.0 mm 0.00 in0.0 mm 0.00 in0.0 mm
01:48 AM 34.5°F1.4°C 33.3°F0.7°C 95% 6.0 mph W9.7 kmh W 14.0 mph22.5 kmh 29.81 in1009.5 mb 0.00 in0.0 mm 0.00 in0.0 mm 0.00 in0.0 mm
01:51 AM 34.7°F1.5°C 33.4°F0.8°C 95% 6.0 mph W9.7 kmh W 12.0 mph19.3 kmh 29.81 in1009.5 mb 0.00 in0.0 mm 0.00 in0.0 mm 0.00 in0.0 mm
01:54 AM 34.9°F1.6°C 33.4°F0.8°C 95% 7.0 mph W11.3 kmh W 16.0 mph25.7 kmh 29.81 in1009.5 mb 0.00 in0.0 mm 0.00 in0.0 mm 0.00 in0.0 mm
01:57 AM 34.9°F1.6°C 33.6°F0.9°C 95% 7.0 mph W11.3 kmh W 16.0 mph25.7 kmh 29.81 in1009.5 mb 0.00 in0.0 mm 0.00 in0.0 mm 0.00 in0.0 mm
02:00 AM 35.1°F1.7°C 33.8°F1.0°C 95% 7.0 mph W11.3 kmh W 16.0 mph25.7 kmh 29.81 in1009.5 mb 0.00 in0.0 mm 0.00 in0.0 mm 0.00 in0.0 mm
02:03 AM 35.1°F1.7°C 33.4°F0.8°C 94% 7.0 mph W11.3 kmh W 15.0 mph24.1 kmh 29.82 in1009.8 mb 0.00 in0.0 mm 0.00 in0.0 mm 0.00 in0.0 mm
02:06 AM 35.1°F1.7°C 33.6°F0.9°C 94% 7.0 mph W11.3 kmh W 14.0 mph22.5 kmh 29.82 in1009.8 mb 0.00 in0.0 mm 0.00 in0.0 mm 0.00 in0.0 mm
02:09 AM 35.1°F1.7°C 33.6°F0.9°C 94% 7.0 mph W11.3 kmh W 14.0 mph22.5 kmh 29.82 in1009.8 mb 0.00 in0.0 mm 0.00 in0.0 mm 0.00 in0.0 mm
02:12 AM 35.1°F1.7°C 33.6°F0.9°C 94% 7.0 mph W11.3 kmh W 14.0 mph22.5 kmh 29.82 in1009.8 mb 0.00 in0.0 mm 0.00 in0.0 mm 0.00 in0.0 mm
02:15 AM 35.1°F1.7°C 33.6°F0.9°C 94% 7.0 mph W11.3 kmh W 13.0 mph20.9 kmh 29.82 in1009.8 mb 0.00 in0.0 mm 0.00 in0.0 mm 0.00 in0.0 mm
02:18 AM 35.1°F1.7°C 33.6°F0.9°C 94% 7.0 mph W11.3 kmh W 13.0 mph20.9 kmh 29.82 in1009.8 mb 0.00 in0.0 mm 0.00 in0.0 mm 0.00 in0.0 mm
02:21 AM 35.1°F1.7°C 33.6°F0.9°C 94% 6.0 mph W9.7 kmh W 15.0 mph24.1 kmh 29.82 in1009.8 mb 0.00 in0.0 mm 0.00 in0.0 mm 0.00 in0.0 mm
02:24 AM 35.1°F1.7°C 33.6°F0.9°C 94% 7.0 mph W11.3 kmh W 16.0 mph25.7 kmh 29.82 in1009.8 mb 0.00 in0.0 mm 0.00 in0.0 mm 0.00 in0.0 mm
02:27 AM 35.2°F1.8°C 33.6°F0.9°C 94% 8.0 mph W12.9 kmh W 16.0 mph25.7 kmh 29.82 in1009.8 mb 0.00 in0.0 mm 0.00 in0.0 mm 0.00 in0.0 mm
02:30 AM 35.2°F1.8°C 33.6°F0.9°C 94% 8.0 mph W12.9 kmh W 16.0 mph25.7 kmh 29.82 in1009.8 mb 0.00 in0.0 mm 0.00 in0.0 mm 0.00 in0.0 mm
02:33 AM 35.2°F1.8°C 33.6°F0.9°C 94% 7.0 mph W11.3 kmh W 14.0 mph22.5 kmh 29.82 in1009.8 mb 0.00 in0.0 mm 0.00 in0.0 mm 0.00 in0.0 mm
02:36 AM 35.2°F1.8°C 33.6°F0.9°C 94% 7.0 mph W11.3 kmh W 14.0 mph22.5 kmh 29.82 in1009.8 mb 0.00 in0.0 mm 0.00 in0.0 mm 0.00 in0.0 mm
02:39 AM 35.2°F1.8°C 33.4°F0.8°C 93% 7.0 mph W11.3 kmh W 14.0 mph22.5 kmh 29.82 in1009.8 mb 0.00 in0.0 mm 0.00 in0.0 mm 0.00 in0.0 mm
02:42 AM 35.2°F1.8°C 33.6°F0.9°C 94% 7.0 mph W11.3 kmh W 16.0 mph25.7 kmh 29.82 in1009.8 mb 0.00 in0.0 mm 0.00 in0.0 mm 0.00 in0.0 mm
02:45 AM 35.2°F1.8°C 33.6°F0.9°C 94% 7.0 mph W11.3 kmh W 16.0 mph25.7 kmh 29.82 in1009.8 mb 0.00 in0.0 mm 0.00 in0.0 mm 0.00 in0.0 mm
02:48 AM 35.2°F1.8°C 33.6°F0.9°C 94% 8.0 mph W12.9 kmh W 16.0 mph25.7 kmh 29.82 in1009.8 mb 0.00 in0.0 mm 0.00 in0.0 mm 0.00 in0.0 mm
02:51 AM 35.2°F1.8°C 33.4°F0.8°C 93% 7.0 mph W11.3 kmh W 15.0 mph24.1 kmh 29.82 in1009.8 mb 0.00 in0.0 mm 0.00 in0.0 mm 0.00 in0.0 mm
02:54 AM 35.4°F1.9°C 33.6°F0.9°C 93% 8.0 mph W12.9 kmh W 16.0 mph25.7 kmh 29.82 in1009.8 mb 0.00 in0.0 mm 0.00 in0.0 mm 0.00 in0.0 mm
02:57 AM 35.6°F2.0°C 33.8°F1.0°C 93% 7.0 mph W11.3 kmh W 16.0 mph25.7 kmh 29.82 in1009.8 mb 0.00 in0.0 mm 0.00 in0.0 mm 0.00 in0.0 mm
03:00 AM 35.8°F2.1°C 33.8°F1.0°C 93% 7.0 mph W11.3 kmh W 16.0 mph25.7 kmh 29.82 in1009.8 mb 0.00 in0.0 mm 0.00 in0.0 mm 0.00 in0.0 mm
03:03 AM 35.8°F2.1°C 33.8°F1.0°C 93% 7.0 mph W11.3 kmh W 16.0 mph25.7 kmh 29.82 in1009.8 mb 0.00 in0.0 mm 0.00 in0.0 mm 0.00 in0.0 mm
03:06 AM 35.8°F2.1°C 34.0°F1.1°C 93% 7.0 mph W11.3 kmh W 16.0 mph25.7 kmh 29.82 in1009.8 mb 0.00 in0.0 mm 0.00 in0.0 mm 0.00 in0.0 mm
03:09 AM 35.8°F2.1°C 33.6°F0.9°C 92% 7.0 mph W11.3 kmh W 16.0 mph25.7 kmh 29.82 in1009.8 mb 0.00 in0.0 mm 0.00 in0.0 mm 0.00 in0.0 mm
03:12 AM 35.8°F2.1°C 33.6°F0.9°C 92% 7.0 mph W11.3 kmh W 14.0 mph22.5 kmh 29.82 in1009.8 mb 0.00 in0.0 mm 0.00 in0.0 mm 0.00 in0.0 mm
03:15 AM 35.8°F2.1°C 33.6°F0.9°C 92% 7.0 mph W11.3 kmh W 14.0 mph22.5 kmh 29.82 in1009.8 mb 0.00 in0.0 mm 0.00 in0.0 mm 0.00 in0.0 mm
03:18 AM 36.0°F2.2°C 33.8°F1.0°C 92% 7.0 mph W11.3 kmh W 13.0 mph20.9 kmh 29.83 in1010.2 mb 0.00 in0.0 mm 0.00 in0.0 mm 0.00 in0.0 mm
03:21 AM 36.0°F2.2°C 34.0°F1.1°C 92% 7.0 mph W11.3 kmh W 13.0 mph20.9 kmh 29.83 in1010.2 mb 0.00 in0.0 mm 0.00 in0.0 mm 0.00 in0.0 mm
03:24 AM 36.0°F2.2°C 34.0°F1.1°C 92% 7.0 mph W11.3 kmh W 15.0 mph24.1 kmh 29.83 in1010.2 mb 0.00 in0.0 mm 0.00 in0.0 mm 0.00 in0.0 mm
03:27 AM 36.0°F2.2°C 34.0°F1.1°C 92% 8.0 mph W12.9 kmh W 15.0 mph24.1 kmh 29.82 in1009.8 mb 0.00 in0.0 mm 0.00 in0.0 mm 0.00 in0.0 mm
03:30 AM 36.0°F2.2°C 34.0°F1.1°C 92% 7.0 mph W11.3 kmh W 15.0 mph24.1 kmh 29.83 in1010.2 mb 0.00 in0.0 mm 0.00 in0.0 mm 0.00 in0.0 mm
03:33 AM 36.0°F2.2°C 34.0°F1.1°C 92% 6.0 mph W9.7 kmh W 12.0 mph19.3 kmh 29.83 in1010.2 mb 0.00 in0.0 mm 0.00 in0.0 mm 0.00 in0.0 mm
03:36 AM 36.0°F2.2°C 34.0°F1.1°C 92% 5.0 mph WNW8.0 kmh WNW 12.0 mph19.3 kmh 29.83 in1010.2 mb 0.00 in0.0 mm 0.00 in0.0 mm 0.00 in0.0 mm
03:39 AM 36.1°F2.3°C 34.0°F1.1°C 92% 5.0 mph WNW8.0 kmh WNW 12.0 mph19.3 kmh 29.83 in1010.2 mb 0.00 in0.0 mm 0.00 in0.0 mm 0.00 in0.0 mm
03:42 AM 36.1°F2.3°C 34.0°F1.1°C 92% 4.0 mph WNW6.4 kmh WNW 11.0 mph17.7 kmh 29.83 in1010.2 mb 0.00 in0.0 mm 0.00 in0.0 mm 0.00 in0.0 mm
03:45 AM 36.1°F2.3°C 34.0°F1.1°C 92% 5.0 mph WNW8.0 kmh WNW 10.0 mph16.1 kmh 29.83 in1010.2 mb 0.00 in0.0 mm 0.00 in0.0 mm 0.00 in0.0 mm
03:48 AM 36.1°F2.3°C 34.0°F1.1°C 92% 4.0 mph WNW6.4 kmh WNW 10.0 mph16.1 kmh 29.83 in1010.2 mb 0.00 in0.0 mm 0.00 in0.0 mm 0.00 in0.0 mm
03:51 AM 36.1°F2.3°C 34.0°F1.1°C 92% 4.0 mph WNW6.4 kmh WNW 10.0 mph16.1 kmh 29.83 in1010.2 mb 0.00 in0.0 mm 0.00 in0.0 mm 0.00 in0.0 mm
03:54 AM 36.1°F2.3°C 34.0°F1.1°C 92% 4.0 mph WNW6.4 kmh WNW 10.0 mph16.1 kmh 29.83 in1010.2 mb 0.00 in0.0 mm 0.00 in0.0 mm 0.00 in0.0 mm
03:57 AM 36.1°F2.3°C 34.0°F1.1°C 92% 3.0 mph WNW4.8 kmh WNW 10.0 mph16.1 kmh 29.83 in1010.2 mb 0.00 in0.0 mm 0.00 in0.0 mm 0.00 in0.0 mm
04:00 AM 36.0°F2.2°C 33.4°F0.8°C 91% 3.0 mph WNW4.8 kmh WNW 10.0 mph16.1 kmh 29.83 in1010.2 mb 0.00 in0.0 mm 0.00 in0.0 mm 0.00 in0.0 mm
04:03 AM 35.8°F2.1°C 33.6°F0.9°C 92% 3.0 mph WNW4.8 kmh WNW 7.0 mph11.3 kmh 29.83 in1010.2 mb 0.00 in0.0 mm 0.00 in0.0 mm 0.00 in0.0 mm
04:06 AM 35.6°F2.0°C 33.3°F0.7°C 91% 3.0 mph WNW4.8 kmh WNW 7.0 mph11.3 kmh 29.83 in1010.2 mb 0.00 in0.0 mm 0.00 in0.0 mm 0.00 in0.0 mm
04:09 AM 35.4°F1.9°C 33.1°F0.6°C 91% 3.0 mph WNW4.8 kmh WNW 9.0 mph14.5 kmh 29.83 in1010.2 mb 0.00 in0.0 mm 0.00 in0.0 mm 0.00 in0.0 mm
04:12 AM 35.2°F1.8°C 32.9°F0.5°C 91% 4.0 mph W6.4 kmh W 9.0 mph14.5 kmh 29.83 in1010.2 mb 0.00 in0.0 mm 0.00 in0.0 mm 0.00 in0.0 mm
04:15 AM 35.1°F1.7°C 33.1°F0.6°C 92% 5.0 mph W8.0 kmh W 10.0 mph16.1 kmh 29.82 in1009.8 mb 0.00 in0.0 mm 0.00 in0.0 mm 0.00 in0.0 mm
04:18 AM 35.1°F1.7°C 33.1°F0.6°C 92% 5.0 mph W8.0 kmh W 10.0 mph16.1 kmh 29.83 in1010.2 mb 0.00 in0.0 mm 0.00 in0.0 mm 0.00 in0.0 mm
04:21 AM 35.1°F1.7°C 32.9°F0.5°C 92% 5.0 mph WSW8.0 kmh WSW 10.0 mph16.1 kmh 29.83 in1010.2 mb 0.00 in0.0 mm 0.00 in0.0 mm 0.00 in0.0 mm
04:24 AM 34.9°F1.6°C 32.9°F0.5°C 92% 5.0 mph W8.0 kmh W 11.0 mph17.7 kmh 29.83 in1010.2 mb 0.00 in0.0 mm 0.00 in0.0 mm 0.00 in0.0 mm
04:27 AM 34.9°F1.6°C 32.9°F0.5°C 92% 5.0 mph W8.0 kmh W 11.0 mph17.7 kmh 29.83 in1010.2 mb 0.00 in0.0 mm 0.00 in0.0 mm 0.00 in0.0 mm
04:30 AM 34.9°F1.6°C 32.9°F0.5°C 92% 5.0 mph W8.0 kmh W 11.0 mph17.7 kmh 29.83 in1010.2 mb 0.00 in0.0 mm 0.00 in0.0 mm 0.00 in0.0 mm
04:33 AM 34.9°F1.6°C 32.9°F0.5°C 92% 5.0 mph W8.0 kmh W 10.0 mph16.1 kmh 29.83 in1010.2 mb 0.00 in0.0 mm 0.00 in0.0 mm 0.00 in0.0 mm
04:36 AM 34.9°F1.6°C 32.9°F0.5°C 92% 5.0 mph W8.0 kmh W 11.0 mph17.7 kmh 29.83 in1010.2 mb 0.00 in0.0 mm 0.00 in0.0 mm 0.00 in0.0 mm
04:39 AM 34.9°F1.6°C 32.9°F0.5°C 92% 5.0 mph W8.0 kmh W 11.0 mph17.7 kmh 29.83 in1010.2 mb 0.00 in0.0 mm 0.00 in0.0 mm 0.00 in0.0 mm
04:42 AM 34.9°F1.6°C 32.7°F0.4°C 92% 5.0 mph W8.0 kmh W 11.0 mph17.7 kmh 29.83 in1010.2 mb 0.00 in0.0 mm 0.00 in0.0 mm 0.00 in0.0 mm
04:45 AM 34.7°F1.5°C 32.5°F0.3°C 92% 5.0 mph W8.0 kmh W 10.0 mph16.1 kmh 29.83 in1010.2 mb 0.00 in0.0 mm 0.00 in0.0 mm 0.00 in0.0 mm
04:48 AM 34.7°F1.5°C 32.5°F0.3°C 92% 5.0 mph W8.0 kmh W 11.0 mph17.7 kmh 29.83 in1010.2 mb 0.00 in0.0 mm 0.00 in0.0 mm 0.00 in0.0 mm
04:51 AM 34.7°F1.5°C 32.5°F0.3°C 92% 5.0 mph W8.0 kmh W 11.0 mph17.7 kmh 29.83 in1010.2 mb 0.00 in0.0 mm 0.00 in0.0 mm 0.00 in0.0 mm
04:54 AM 34.7°F1.5°C 32.9°F0.5°C 93% 4.0 mph W6.4 kmh W 11.0 mph17.7 kmh 29.83 in1010.2 mb 0.00 in0.0 mm 0.00 in0.0 mm 0.00 in0.0 mm
04:57 AM 34.7°F1.5°C 32.9°F0.5°C 93% 4.0 mph W6.4 kmh W 9.0 mph14.5 kmh 29.83 in1010.2 mb 0.00 in0.0 mm 0.00 in0.0 mm 0.00 in0.0 mm
05:00 AM 34.7°F1.5°C 32.5°F0.3°C 92% 4.0 mph WSW6.4 kmh WSW 9.0 mph14.5 kmh 29.83 in1010.2 mb 0.00 in0.0 mm 0.00 in0.0 mm 0.00 in0.0 mm
05:03 AM 34.5°F1.4°C 32.5°F0.3°C 92% 5.0 mph WSW8.0 kmh WSW 9.0 mph14.5 kmh 29.83 in1010.2 mb 0.00 in0.0 mm 0.00 in0.0 mm 0.00 in0.0 mm
05:06 AM 34.5°F1.4°C 32.4°F0.2°C 92% 6.0 mph WSW9.7 kmh WSW 10.0 mph16.1 kmh 29.83 in1010.2 mb 0.00 in0.0 mm 0.00 in0.0 mm 0.00 in0.0 mm
05:09 AM 34.3°F1.3°C 32.4°F0.2°C 92% 6.0 mph WSW9.7 kmh WSW 10.0 mph16.1 kmh 29.83 in1010.2 mb 0.00 in0.0 mm 0.00 in0.0 mm 0.00 in0.0 mm
05:12 AM 34.3°F1.3°C 32.2°F0.1°C 92% 6.0 mph WSW9.7 kmh WSW 10.0 mph16.1 kmh 29.83 in1010.2 mb 0.00 in0.0 mm 0.00 in0.0 mm 0.00 in0.0 mm
05:15 AM 34.3°F1.3°C 32.5°F0.3°C 93% 6.0 mph WSW9.7 kmh WSW 10.0 mph16.1 kmh 29.83 in1010.2 mb 0.00 in0.0 mm 0.00 in0.0 mm 0.00 in0.0 mm
05:18 AM 34.2°F1.2°C 32.4°F0.2°C 93% 6.0 mph WSW9.7 kmh WSW 11.0 mph17.7 kmh 29.82 in1009.8 mb 0.00 in0.0 mm 0.00 in0.0 mm 0.00 in0.0 mm
05:21 AM 34.2°F1.2°C 32.4°F0.2°C 93% 6.0 mph WSW9.7 kmh WSW 11.0 mph17.7 kmh 29.82 in1009.8 mb 0.00 in0.0 mm 0.00 in0.0 mm 0.00 in0.0 mm
05:24 AM 34.0°F1.1°C 32.0°F0.0°C 92% 6.0 mph WSW9.7 kmh WSW 11.0 mph17.7 kmh 29.82 in1009.8 mb 0.00 in0.0 mm 0.00 in0.0 mm 0.00 in0.0 mm
05:27 AM 34.0°F1.1°C 32.2°F0.1°C 93% 6.0 mph WSW9.7 kmh WSW 11.0 mph17.7 kmh 29.82 in1009.8 mb 0.00 in0.0 mm 0.00 in0.0 mm 0.00 in0.0 mm
05:30 AM 34.0°F1.1°C 32.2°F0.1°C 93% 7.0 mph WSW11.3 kmh WSW 10.0 mph16.1 kmh 29.83 in1010.2 mb 0.00 in0.0 mm 0.00 in0.0 mm 0.00 in0.0 mm
05:33 AM 34.2°F1.2°C 32.4°F0.2°C 93% 7.0 mph WSW11.3 kmh WSW 10.0 mph16.1 kmh 29.82 in1009.8 mb 0.00 in0.0 mm 0.00 in0.0 mm 0.00 in0.0 mm
05:36 AM 34.2°F1.2°C 32.4°F0.2°C 93% 7.0 mph WSW11.3 kmh WSW 11.0 mph17.7 kmh 29.82 in1009.8 mb 0.00 in0.0 mm 0.00 in0.0 mm 0.00 in0.0 mm
05:39 AM 34.2°F1.2°C 32.4°F0.2°C 93% 7.0 mph WSW11.3 kmh WSW 11.0 mph17.7 kmh 29.82 in1009.8 mb 0.00 in0.0 mm 0.00 in0.0 mm 0.00 in0.0 mm
05:42 AM 34.2°F1.2°C 32.4°F0.2°C 93% 7.0 mph WSW11.3 kmh WSW 11.0 mph17.7 kmh 29.83 in1010.2 mb 0.00 in0.0 mm 0.00 in0.0 mm 0.00 in0.0 mm
05:45 AM 34.2°F1.2°C 32.4°F0.2°C 93% 7.0 mph WSW11.3 kmh WSW 11.0 mph17.7 kmh 29.83 in1010.2 mb 0.00 in0.0 mm 0.00 in0.0 mm 0.00 in0.0 mm
05:48 AM 34.3°F1.3°C 32.5°F0.3°C 93% 7.0 mph WSW11.3 kmh WSW 10.0 mph16.1 kmh 29.83 in1010.2 mb 0.00 in0.0 mm 0.00 in0.0 mm 0.00 in0.0 mm
05:51 AM 34.3°F1.3°C 32.5°F0.3°C 93% 7.0 mph WSW11.3 kmh WSW 11.0 mph17.7 kmh 29.83 in1010.2 mb 0.00 in0.0 mm 0.00 in0.0 mm 0.00 in0.0 mm
05:54 AM 34.2°F1.2°C 32.4°F0.2°C 93% 7.0 mph WSW11.3 kmh WSW 12.0 mph19.3 kmh 29.83 in1010.2 mb 0.00 in0.0 mm 0.00 in0.0 mm 0.00 in0.0 mm
05:57 AM 34.2°F1.2°C 32.4°F0.2°C 93% 7.0 mph WSW11.3 kmh WSW 12.0 mph19.3 kmh 29.83 in1010.2 mb 0.00 in0.0 mm 0.00 in0.0 mm 0.00 in0.0 mm
06:00 AM 34.2°F1.2°C 32.4°F0.2°C 93% 7.0 mph WSW11.3 kmh WSW 12.0 mph19.3 kmh 29.83 in1010.2 mb 0.00 in0.0 mm 0.00 in0.0 mm 0.00 in0.0 mm
06:03 AM 34.2°F1.2°C 32.4°F0.2°C 93% 7.0 mph WSW11.3 kmh WSW 11.0 mph17.7 kmh 29.83 in1010.2 mb 0.00 in0.0 mm 0.00 in0.0 mm 0.00 in0.0 mm
06:06 AM 34.2°F1.2°C 32.4°F0.2°C 93% 6.0 mph WSW9.7 kmh WSW 10.0 mph16.1 kmh 29.82 in1009.8 mb 0.00 in0.0 mm 0.00 in0.0 mm 0.00 in0.0 mm
06:09 AM 34.2°F1.2°C 32.4°F0.2°C 93% 6.0 mph WSW9.7 kmh WSW 10.0 mph16.1 kmh 29.82 in1009.8 mb 0.00 in0.0 mm 0.00 in0.0 mm 0.00 in0.0 mm
06:12 AM 34.0°F1.1°C 32.2°F0.1°C 93% 6.0 mph WSW9.7 kmh WSW 10.0 mph16.1 kmh 29.82 in1009.8 mb 0.00 in0.0 mm 0.00 in0.0 mm 0.00 in0.0 mm
06:15 AM 34.0°F1.1°C 32.2°F0.1°C 93% 5.0 mph WSW8.0 kmh WSW 10.0 mph16.1 kmh 29.82 in1009.8 mb 0.00 in0.0 mm 0.00 in0.0 mm 0.00 in0.0 mm
06:18 AM 34.0°F1.1°C 32.2°F0.1°C 93% 5.0 mph WSW8.0 kmh WSW 10.0 mph16.1 kmh 29.82 in1009.8 mb 0.00 in0.0 mm 0.00 in0.0 mm 0.00 in0.0 mm
06:21 AM 34.0°F1.1°C 32.2°F0.1°C 93% 5.0 mph WSW8.0 kmh WSW 10.0 mph16.1 kmh 29.82 in1009.8 mb 0.00 in0.0 mm 0.00 in0.0 mm 0.00 in0.0 mm
06:24 AM 34.0°F1.1°C 32.2°F0.1°C 93% 5.0 mph WSW8.0 kmh WSW 10.0 mph16.1 kmh 29.82 in1009.8 mb 0.00 in0.0 mm 0.00 in0.0 mm 0.00 in0.0 mm
06:27 AM 33.8°F1.0°C 32.0°F0.0°C 93% 4.0 mph WSW6.4 kmh WSW 8.0 mph12.9 kmh 29.82 in1009.8 mb 0.00 in0.0 mm 0.00 in0.0 mm 0.00 in0.0 mm
06:30 AM 33.6°F0.9°C 33.6°F0.9°C 100% 4.0 mph SW6.4 kmh SW 8.0 mph12.9 kmh 29.82 in1009.8 mb 0.00 in0.0 mm 0.00 in0.0 mm 0.00 in0.0 mm
06:33 AM 33.6°F0.9°C 31.8°F-0.1°C 93% 5.0 mph SW8.0 kmh SW 10.0 mph16.1 kmh 29.82 in1009.8 mb 0.00 in0.0 mm 0.00 in0.0 mm 0.00 in0.0 mm
06:36 AM 33.4°F0.8°C 31.6°F-0.2°C 93% 5.0 mph WSW8.0 kmh WSW 11.0 mph17.7 kmh 29.82 in1009.8 mb 0.00 in0.0 mm 0.00 in0.0 mm 0.00 in0.0 mm
06:39 AM 33.4°F0.8°C 31.6°F-0.2°C 93% 6.0 mph WSW9.7 kmh WSW 11.0 mph17.7 kmh 29.81 in1009.5 mb 0.00 in0.0 mm 0.00 in0.0 mm 0.00 in0.0 mm
06:42 AM 33.4°F0.8°C 31.6°F-0.2°C 93% 6.0 mph WSW9.7 kmh WSW 11.0 mph17.7 kmh 29.82 in1009.8 mb 0.00 in0.0 mm 0.00 in0.0 mm 0.00 in0.0 mm
06:45 AM 33.4°F0.8°C 31.6°F-0.2°C 93% 5.0 mph WSW8.0 kmh WSW 9.0 mph14.5 kmh 29.82 in1009.8 mb 0.00 in0.0 mm 0.00 in0.0 mm 0.00 in0.0 mm
06:48 AM 33.4°F0.8°C 31.6°F-0.2°C 93% 5.0 mph WSW8.0 kmh WSW 11.0 mph17.7 kmh 29.81 in1009.5 mb 0.00 in0.0 mm 0.00 in0.0 mm 0.00 in0.0 mm
06:51 AM 33.6°F0.9°C 32.0°F0.0°C 94% 6.0 mph WSW9.7 kmh WSW 11.0 mph17.7 kmh 29.82 in1009.8 mb 0.00 in0.0 mm 0.00 in0.0 mm 0.00 in0.0 mm
06:54 AM 33.6°F0.9°C 32.0°F0.0°C 94% 6.0 mph WSW9.7 kmh WSW 11.0 mph17.7 kmh 29.81 in1009.5 mb 0.00 in0.0 mm 0.00 in0.0 mm 0.00 in0.0 mm
06:57 AM 33.6°F0.9°C 32.2°F0.1°C 94% 6.0 mph WSW9.7 kmh WSW 11.0 mph17.7 kmh 29.81 in1009.5 mb 0.00 in0.0 mm 0.00 in0.0 mm 0.00 in0.0 mm
07:00 AM 33.6°F0.9°C 32.2°F0.1°C 94% 6.0 mph WSW9.7 kmh WSW 11.0 mph17.7 kmh 29.81 in1009.5 mb 0.00 in0.0 mm 0.00 in0.0 mm 0.00 in0.0 mm
07:03 AM 33.6°F0.9°C 31.8°F-0.1°C 93% 7.0 mph WSW11.3 kmh WSW 11.0 mph17.7 kmh 29.81 in1009.5 mb 0.00 in0.0 mm 0.00 in0.0 mm 0.00 in0.0 mm
07:06 AM 33.6°F0.9°C 31.8°F-0.1°C 93% 6.0 mph WSW9.7 kmh WSW 11.0 mph17.7 kmh 29.81 in1009.5 mb 0.00 in0.0 mm 0.00 in0.0 mm 0.00 in0.0 mm
07:09 AM 33.6°F0.9°C 31.8°F-0.1°C 93% 7.0 mph WSW11.3 kmh WSW 11.0 mph17.7 kmh 29.81 in1009.5 mb 0.00 in0.0 mm 0.00 in0.0 mm 0.00 in0.0 mm
07:12 AM 33.6°F0.9°C 32.2°F0.1°C 94% 6.0 mph WSW9.7 kmh WSW 11.0 mph17.7 kmh 29.81 in1009.5 mb 0.00 in0.0 mm 0.00 in0.0 mm 0.00 in0.0 mm
07:15 AM 33.6°F0.9°C 31.8°F-0.1°C 93% 6.0 mph WSW9.7 kmh WSW 11.0 mph17.7 kmh 29.82 in1009.8 mb 0.00 in0.0 mm 0.00 in0.0 mm 0.00 in0.0 mm
07:18 AM 33.6°F0.9°C 31.8°F-0.1°C 93% 6.0 mph WSW9.7 kmh WSW 11.0 mph17.7 kmh 29.82 in1009.8 mb 0.00 in0.0 mm 0.00 in0.0 mm 0.00 in0.0 mm
07:21 AM 33.6°F0.9°C 31.8°F-0.1°C 93% 6.0 mph WSW9.7 kmh WSW 11.0 mph17.7 kmh 29.82 in1009.8 mb 0.00 in0.0 mm 0.00 in0.0 mm 0.00 in0.0 mm
07:24 AM 33.6°F0.9°C 31.8°F-0.1°C 93% 7.0 mph WSW11.3 kmh WSW 13.0 mph20.9 kmh 29.82 in1009.8 mb 0.00 in0.0 mm 0.00 in0.0 mm 0.00 in0.0 mm
07:27 AM 33.6°F0.9°C 31.8°F-0.1°C 93% 6.0 mph WSW9.7 kmh WSW 13.0 mph20.9 kmh 29.83 in1010.2 mb 0.00 in0.0 mm 0.00 in0.0 mm 0.00 in0.0 mm
07:30 AM 33.6°F0.9°C 32.0°F0.0°C 94% 6.0 mph WSW9.7 kmh WSW 13.0 mph20.9 kmh 29.83 in1010.2 mb 0.00 in0.0 mm 0.00 in0.0 mm 0.00 in0.0 mm
07:33 AM 33.8°F1.0°C 32.2°F0.1°C 94% 5.0 mph W8.0 kmh W 13.0 mph20.9 kmh 29.84 in1010.5 mb 0.00 in0.0 mm 0.00 in0.0 mm 0.00 in0.0 mm
07:36 AM 34.2°F1.2°C 32.5°F0.3°C 94% 5.0 mph W8.0 kmh W 13.0 mph20.9 kmh 29.84 in1010.5 mb 0.00 in0.0 mm 0.00 in0.0 mm 0.00 in0.0 mm
07:39 AM 34.3°F1.3°C 32.7°F0.4°C 94% 4.0 mph W6.4 kmh W 9.0 mph14.5 kmh 29.84 in1010.5 mb 0.00 in0.0 mm 0.00 in0.0 mm 0.00 in0.0 mm
07:42 AM 34.3°F1.3°C 32.9°F0.5°C 94% 4.0 mph W6.4 kmh W 9.0 mph14.5 kmh 29.84 in1010.5 mb 0.00 in0.0 mm 0.00 in0.0 mm 0.00 in0.0 mm
07:45 AM 34.3°F1.3°C 32.5°F0.3°C 93% 3.0 mph W4.8 kmh W 9.0 mph14.5 kmh 29.84 in1010.5 mb 0.00 in0.0 mm 0.00 in0.0 mm 0.00 in0.0 mm
07:48 AM 34.3°F1.3°C 32.5°F0.3°C 93% 3.0 mph W4.8 kmh W 8.0 mph12.9 kmh 29.83 in1010.2 mb 0.00 in0.0 mm 0.00 in0.0 mm 0.00 in0.0 mm
07:51 AM 34.2°F1.2°C 32.4°F0.2°C 93% 3.0 mph WSW4.8 kmh WSW 6.0 mph9.7 kmh 29.83 in1010.2 mb 0.00 in0.0 mm 0.00 in0.0 mm 0.00 in0.0 mm
07:54 AM 34.0°F1.1°C 32.2°F0.1°C 93% 3.0 mph WSW4.8 kmh WSW 6.0 mph9.7 kmh 29.83 in1010.2 mb 0.00 in0.0 mm 0.00 in0.0 mm 0.00 in0.0 mm
07:57 AM 34.0°F1.1°C 32.2°F0.1°C 93% 3.0 mph WSW4.8 kmh WSW 8.0 mph12.9 kmh 29.83 in1010.2 mb 0.00 in0.0 mm 0.00 in0.0 mm 0.00 in0.0 mm
08:00 AM 34.0°F1.1°C 32.2°F0.1°C 93% 4.0 mph W6.4 kmh W 10.0 mph16.1 kmh 29.83 in1010.2 mb 0.00 in0.0 mm 0.00 in0.0 mm 0.00 in0.0 mm
08:03 AM 33.8°F1.0°C 32.0°F0.0°C 93% 4.0 mph W6.4 kmh W 10.0 mph16.1 kmh 29.83 in1010.2 mb 0.00 in0.0 mm 0.00 in0.0 mm 0.00 in0.0 mm
08:06 AM 33.6°F0.9°C 31.8°F-0.1°C 93% 4.0 mph W6.4 kmh W 10.0 mph16.1 kmh 29.83 in1010.2 mb 0.00 in0.0 mm 0.00 in0.0 mm 0.00 in0.0 mm
08:09 AM 33.6°F0.9°C 31.8°F-0.1°C 93% 4.0 mph W6.4 kmh W 8.0 mph12.9 kmh 29.82 in1009.8 mb 0.00 in0.0 mm 0.00 in0.0 mm 0.00 in0.0 mm
08:12 AM 34.0°F1.1°C 32.2°F0.1°C 93% 4.0 mph W6.4 kmh W 8.0 mph12.9 kmh 29.83 in1010.2 mb 0.00 in0.0 mm 0.00 in0.0 mm 0.00 in0.0 mm
08:15 AM 34.0°F1.1°C 32.2°F0.1°C 93% 4.0 mph WSW6.4 kmh WSW 8.0 mph12.9 kmh 29.83 in1010.2 mb 0.00 in0.0 mm 0.00 in0.0 mm 0.00 in0.0 mm
08:18 AM 34.0°F1.1°C 32.2°F0.1°C 93% 4.0 mph WSW6.4 kmh WSW 8.0 mph12.9 kmh 29.83 in1010.2 mb 0.00 in0.0 mm 0.00 in0.0 mm 0.00 in0.0 mm
08:21 AM 34.0°F1.1°C 32.2°F0.1°C 93% 4.0 mph WSW6.4 kmh WSW 8.0 mph12.9 kmh 29.83 in1010.2 mb 0.00 in0.0 mm 0.00 in0.0 mm 0.00 in0.0 mm
08:24 AM 34.0°F1.1°C 32.2°F0.1°C 93% 4.0 mph WSW6.4 kmh WSW 9.0 mph14.5 kmh 29.84 in1010.5 mb 0.00 in0.0 mm 0.00 in0.0 mm 0.00 in0.0 mm
08:27 AM 34.2°F1.2°C 32.4°F0.2°C 93% 5.0 mph WSW8.0 kmh WSW 10.0 mph16.1 kmh 29.84 in1010.5 mb 0.00 in0.0 mm 0.00 in0.0 mm 0.00 in0.0 mm
08:30 AM 34.2°F1.2°C 32.4°F0.2°C 93% 5.0 mph WSW8.0 kmh WSW 11.0 mph17.7 kmh 29.84 in1010.5 mb 0.00 in0.0 mm 0.00 in0.0 mm 0.00 in0.0 mm
08:33 AM 34.5°F1.4°C 32.9°F0.5°C 94% 6.0 mph WSW9.7 kmh WSW 12.0 mph19.3 kmh 29.84 in1010.5 mb 0.00 in0.0 mm 0.00 in0.0 mm 0.00 in0.0 mm
08:36 AM 34.9°F1.6°C 33.3°F0.7°C 94% 6.0 mph W9.7 kmh W 12.0 mph19.3 kmh 29.83 in1010.2 mb 0.00 in0.0 mm 0.00 in0.0 mm 0.00 in0.0 mm
08:39 AM 35.2°F1.8°C 33.6°F0.9°C 94% 6.0 mph W9.7 kmh W 13.0 mph20.9 kmh 29.83 in1010.2 mb 0.00 in0.0 mm 0.00 in0.0 mm 0.00 in0.0 mm
08:42 AM 35.4°F1.9°C 34.0°F1.1°C 94% 6.0 mph WNW9.7 kmh WNW 13.0 mph20.9 kmh 29.83 in1010.2 mb 0.00 in0.0 mm 0.00 in0.0 mm 0.00 in0.0 mm
08:45 AM 35.6°F2.0°C 33.8°F1.0°C 93% 6.0 mph WNW9.7 kmh WNW 13.0 mph20.9 kmh 29.83 in1010.2 mb 0.00 in0.0 mm 0.00 in0.0 mm 0.00 in0.0 mm
08:48 AM 35.8°F2.1°C 34.0°F1.1°C 93% 5.0 mph W8.0 kmh W 12.0 mph19.3 kmh 29.83 in1010.2 mb 0.00 in0.0 mm 0.00 in0.0 mm 0.00 in0.0 mm
08:51 AM 35.8°F2.1°C 34.0°F1.1°C 93% 4.0 mph W6.4 kmh W 11.0 mph17.7 kmh 29.83 in1010.2 mb 0.00 in0.0 mm 0.00 in0.0 mm 0.00 in0.0 mm
08:54 AM 35.8°F2.1°C 33.6°F0.9°C 92% 3.0 mph W4.8 kmh W 9.0 mph14.5 kmh 29.83 in1010.2 mb 0.00 in0.0 mm 0.00 in0.0 mm 0.00 in0.0 mm
08:57 AM 35.8°F2.1°C 33.6°F0.9°C 92% 2.0 mph WSW3.2 kmh WSW 7.0 mph11.3 kmh 29.84 in1010.5 mb 0.00 in0.0 mm 0.00 in0.0 mm 0.00 in0.0 mm
09:00 AM 35.4°F1.9°C 33.4°F0.8°C 92% 2.0 mph WSW3.2 kmh WSW 5.0 mph8.0 kmh 29.84 in1010.5 mb 0.00 in0.0 mm 0.00 in0.0 mm 0.00 in0.0 mm
09:03 AM 35.4°F1.9°C 33.3°F0.7°C 92% 3.0 mph WSW4.8 kmh WSW 6.0 mph9.7 kmh 29.84 in1010.5 mb 0.00 in0.0 mm 0.00 in0.0 mm 0.00 in0.0 mm
09:06 AM 35.2°F1.8°C 33.1°F0.6°C 92% 3.0 mph WSW4.8 kmh WSW 8.0 mph12.9 kmh 29.84 in1010.5 mb 0.00 in0.0 mm 0.00 in0.0 mm 0.00 in0.0 mm
09:09 AM 35.2°F1.8°C 33.1°F0.6°C 92% 3.0 mph WSW4.8 kmh WSW 8.0 mph12.9 kmh 29.84 in1010.5 mb 0.00 in0.0 mm 0.00 in0.0 mm 0.00 in0.0 mm
09:12 AM 35.1°F1.7°C 33.1°F0.6°C 92% 3.0 mph WSW4.8 kmh WSW 8.0 mph12.9 kmh 29.84 in1010.5 mb 0.00 in0.0 mm 0.00 in0.0 mm 0.00 in0.0 mm
09:15 AM 35.1°F1.7°C 33.1°F0.6°C 92% 3.0 mph WSW4.8 kmh WSW 8.0 mph12.9 kmh 29.84 in1010.5 mb 0.00 in0.0 mm 0.00 in0.0 mm 0.00 in0.0 mm
09:18 AM 35.1°F1.7°C 33.1°F0.6°C 92% 3.0 mph WSW4.8 kmh WSW 6.0 mph9.7 kmh 29.84 in1010.5 mb 0.00 in0.0 mm 0.00 in0.0 mm 0.00 in0.0 mm
09:21 AM 35.1°F1.7°C 33.1°F0.6°C 92% 3.0 mph WSW4.8 kmh WSW 7.0 mph11.3 kmh 29.84 in1010.5 mb 0.00 in0.0 mm 0.00 in0.0 mm 0.00 in0.0 mm
09:24 AM 35.2°F1.8°C 33.1°F0.6°C 92% 3.0 mph WSW4.8 kmh WSW 7.0 mph11.3 kmh 29.84 in1010.5 mb 0.00 in0.0 mm 0.00 in0.0 mm 0.00 in0.0 mm
09:27 AM 35.2°F1.8°C 33.1°F0.6°C 92% 3.0 mph WSW4.8 kmh WSW 7.0 mph11.3 kmh 29.84 in1010.5 mb 0.00 in0.0 mm 0.00 in0.0 mm 0.00 in0.0 mm
09:30 AM 35.2°F1.8°C 33.1°F0.6°C 92% 2.0 mph WSW3.2 kmh WSW 6.0 mph9.7 kmh 29.84 in1010.5 mb 0.00 in0.0 mm 0.00 in0.0 mm 0.00 in0.0 mm
09:33 AM 35.2°F1.8°C 33.1°F0.6°C 92% 2.0 mph SW3.2 kmh SW 6.0 mph9.7 kmh 29.84 in1010.5 mb 0.00 in0.0 mm 0.00 in0.0 mm 0.00 in0.0 mm
09:36 AM 35.2°F1.8°C 33.1°F0.6°C 92% 2.0 mph SW3.2 kmh SW 6.0 mph9.7 kmh 29.85 in1010.8 mb 0.00 in0.0 mm 0.00 in0.0 mm 0.00 in0.0 mm
09:39 AM 35.1°F1.7°C 33.1°F0.6°C 92% 2.0 mph SW3.2 kmh SW 5.0 mph8.0 kmh 29.85 in1010.8 mb 0.00 in0.0 mm 0.00 in0.0 mm 0.00 in0.0 mm
09:42 AM 35.1°F1.7°C 33.1°F0.6°C 92% 2.0 mph SW3.2 kmh SW 4.0 mph6.4 kmh 29.85 in1010.8 mb 0.00 in0.0 mm 0.00 in0.0 mm 0.00 in0.0 mm
09:45 AM 35.2°F1.8°C 33.4°F0.8°C 93% 2.0 mph SW3.2 kmh SW 5.0 mph8.0 kmh 29.85 in1010.8 mb 0.00 in0.0 mm 0.00 in0.0 mm 0.00 in0.0 mm
09:48 AM 35.4°F1.9°C 33.6°F0.9°C 93% 2.0 mph SSW3.2 kmh SSW 5.0 mph8.0 kmh 29.85 in1010.8 mb 0.00 in0.0 mm 0.00 in0.0 mm 0.00 in0.0 mm
09:51 AM 35.4°F1.9°C 33.6°F0.9°C 93% 2.0 mph SSW3.2 kmh SSW 5.0 mph8.0 kmh 29.85 in1010.8 mb 0.00 in0.0 mm 0.00 in0.0 mm 0.00 in0.0 mm
09:54 AM 35.4°F1.9°C 33.6°F0.9°C 93% 3.0 mph SW4.8 kmh SW 7.0 mph11.3 kmh 29.85 in1010.8 mb 0.00 in0.0 mm 0.00 in0.0 mm 0.00 in0.0 mm
09:57 AM 35.6°F2.0°C 33.8°F1.0°C 93% 3.0 mph SW4.8 kmh SW 8.0 mph12.9 kmh 29.85 in1010.8 mb 0.00 in0.0 mm 0.00 in0.0 mm 0.00 in0.0 mm
10:00 AM 35.8°F2.1°C 33.8°F1.0°C 93% 2.0 mph WSW3.2 kmh WSW 8.0 mph12.9 kmh 29.85 in1010.8 mb 0.00 in0.0 mm 0.00 in0.0 mm 0.00 in0.0 mm
10:03 AM 35.8°F2.1°C 34.0°F1.1°C 93% 2.0 mph WSW3.2 kmh WSW 8.0 mph12.9 kmh 29.85 in1010.8 mb 0.00 in0.0 mm 0.00 in0.0 mm 0.00 in0.0 mm
10:06 AM 36.0°F2.2°C 34.2°F1.2°C 93% 3.0 mph W4.8 kmh W 12.0 mph19.3 kmh 29.85 in1010.8 mb 0.00 in0.0 mm 0.00 in0.0 mm 0.00 in0.0 mm
10:09 AM 36.7°F2.6°C 35.1°F1.7°C 94% 4.0 mph WNW6.4 kmh WNW 13.0 mph20.9 kmh 29.85 in1010.8 mb 0.00 in0.0 mm 0.00 in0.0 mm 0.00 in0.0 mm
10:12 AM 37.0°F2.8°C 35.6°F2.0°C 94% 4.0 mph NW6.4 kmh NW 13.0 mph20.9 kmh 29.85 in1010.8 mb 0.00 in0.0 mm 0.00 in0.0 mm 0.00 in0.0 mm
10:15 AM 37.4°F3.0°C 35.6°F2.0°C 93% 5.0 mph NW8.0 kmh NW 13.0 mph20.9 kmh 29.85 in1010.8 mb 0.00 in0.0 mm 0.00 in0.0 mm 0.00 in0.0 mm
10:18 AM 37.6°F3.1°C 35.8°F2.1°C 93% 4.0 mph NW6.4 kmh NW 9.0 mph14.5 kmh 29.85 in1010.8 mb 0.00 in0.0 mm 0.00 in0.0 mm 0.00 in0.0 mm
10:21 AM 37.8°F3.2°C 35.6°F2.0°C 92% 5.0 mph WNW8.0 kmh WNW 11.0 mph17.7 kmh 29.85 in1010.8 mb 0.00 in0.0 mm 0.00 in0.0 mm 0.00 in0.0 mm
10:24 AM 37.9°F3.3°C 35.8°F2.1°C 92% 5.0 mph W8.0 kmh W 11.0 mph17.7 kmh 29.85 in1010.8 mb 0.01 in0.3 mm 0.20 in5.1 mm 0.01 in0.3 mm
10:27 AM 37.9°F3.3°C 36.0°F2.2°C 92% 5.0 mph W8.0 kmh W 11.0 mph17.7 kmh 29.86 in1011.2 mb 0.01 in0.3 mm 0.00 in0.0 mm 0.01 in0.3 mm
10:30 AM 38.1°F3.4°C 36.0°F2.2°C 92% 5.0 mph W8.0 kmh W 11.0 mph17.7 kmh 29.86 in1011.2 mb 0.01 in0.3 mm 0.00 in0.0 mm 0.01 in0.3 mm
10:33 AM 38.3°F3.5°C 36.1°F2.3°C 92% 4.0 mph W6.4 kmh W 9.0 mph14.5 kmh 29.86 in1011.2 mb 0.01 in0.3 mm 0.00 in0.0 mm 0.01 in0.3 mm
10:36 AM 38.7°F3.7°C 36.5°F2.5°C 92% 4.0 mph WSW6.4 kmh WSW 11.0 mph17.7 kmh 29.86 in1011.2 mb 0.01 in0.3 mm 0.00 in0.0 mm 0.01 in0.3 mm
10:39 AM 38.7°F3.7°C 36.5°F2.5°C 92% 4.0 mph W6.4 kmh W 12.0 mph19.3 kmh 29.86 in1011.2 mb 0.01 in0.3 mm 0.00 in0.0 mm 0.01 in0.3 mm
10:42 AM 38.7°F3.7°C 36.3°F2.4°C 91% 5.0 mph W8.0 kmh W 15.0 mph24.1 kmh 29.86 in1011.2 mb 0.01 in0.3 mm 0.00 in0.0 mm 0.01 in0.3 mm
10:45 AM 38.7°F3.7°C 36.3°F2.4°C 91% 6.0 mph W9.7 kmh W 15.0 mph24.1 kmh 29.86 in1011.2 mb 0.01 in0.3 mm 0.00 in0.0 mm 0.01 in0.3 mm
10:48 AM 38.7°F3.7°C 36.3°F2.4°C 91% 6.0 mph W9.7 kmh W 15.0 mph24.1 kmh 29.86 in1011.2 mb 0.01 in0.3 mm 0.00 in0.0 mm 0.01 in0.3 mm
10:51 AM 38.7°F3.7°C 36.3°F2.4°C 91% 6.0 mph W9.7 kmh W 13.0 mph20.9 kmh 29.85 in1010.8 mb 0.01 in0.3 mm 0.00 in0.0 mm 0.01 in0.3 mm
10:54 AM 38.7°F3.7°C 36.3°F2.4°C 91% 5.0 mph W8.0 kmh W 13.0 mph20.9 kmh 29.85 in1010.8 mb 0.01 in0.3 mm 0.00 in0.0 mm 0.01 in0.3 mm
10:57 AM 38.7°F3.7°C 36.3°F2.4°C 91% 4.0 mph W6.4 kmh W 12.0 mph19.3 kmh 29.85 in1010.8 mb 0.01 in0.3 mm 0.00 in0.0 mm 0.01 in0.3 mm
11:00 AM 38.8°F3.8°C 36.3°F2.4°C 91% 3.0 mph WNW4.8 kmh WNW 10.0 mph16.1 kmh 29.85 in1010.8 mb 0.01 in0.3 mm 0.00 in0.0 mm 0.01 in0.3 mm
11:03 AM 38.8°F3.8°C 36.5°F2.5°C 91% 3.0 mph WNW4.8 kmh WNW 10.0 mph16.1 kmh 29.85 in1010.8 mb 0.01 in0.3 mm 0.00 in0.0 mm 0.01 in0.3 mm
11:06 AM 38.8°F3.8°C 36.1°F2.3°C 90% 3.0 mph WNW4.8 kmh WNW 10.0 mph16.1 kmh 29.85 in1010.8 mb 0.01 in0.3 mm 0.00 in0.0 mm 0.01 in0.3 mm
11:09 AM 38.8°F3.8°C 36.1°F2.3°C 90% 2.0 mph WNW3.2 kmh WNW 8.0 mph12.9 kmh 29.85 in1010.8 mb 0.01 in0.3 mm 0.00 in0.0 mm 0.01 in0.3 mm
11:12 AM 38.8°F3.8°C 36.1°F2.3°C 90% 2.0 mph WNW3.2 kmh WNW 8.0 mph12.9 kmh 29.85 in1010.8 mb 0.01 in0.3 mm 0.00 in0.0 mm 0.01 in0.3 mm
11:15 AM 38.8°F3.8°C 36.1°F2.3°C 90% 2.0 mph WNW3.2 kmh WNW 8.0 mph12.9 kmh 29.86 in1011.2 mb 0.01 in0.3 mm 0.00 in0.0 mm 0.01 in0.3 mm
11:18 AM 38.8°F3.8°C 36.1°F2.3°C 90% 2.0 mph W3.2 kmh W 6.0 mph9.7 kmh 29.86 in1011.2 mb 0.01 in0.3 mm 0.00 in0.0 mm 0.01 in0.3 mm
11:21 AM 39.0°F3.9°C 36.3°F2.4°C 90% 2.0 mph W3.2 kmh W 4.0 mph6.4 kmh 29.86 in1011.2 mb 0.01 in0.3 mm 0.00 in0.0 mm 0.01 in0.3 mm
11:24 AM 39.0°F3.9°C 36.3°F2.4°C 90% 2.0 mph W3.2 kmh W 6.0 mph9.7 kmh 29.86 in1011.2 mb 0.00 in0.0 mm 0.00 in0.0 mm 0.01 in0.3 mm
11:27 AM 39.0°F3.9°C 36.5°F2.5°C 90% 3.0 mph WSW4.8 kmh WSW 6.0 mph9.7 kmh 29.86 in1011.2 mb 0.00 in0.0 mm 0.00 in0.0 mm 0.01 in0.3 mm
11:30 AM 39.4°F4.1°C 36.9°F2.7°C 91% 3.0 mph SW4.8 kmh SW 6.0 mph9.7 kmh 29.86 in1011.2 mb 0.00 in0.0 mm 0.00 in0.0 mm 0.01 in0.3 mm
11:33 AM 39.4°F4.1°C 37.0°F2.8°C 91% 3.0 mph SW4.8 kmh SW 6.0 mph9.7 kmh 29.86 in1011.2 mb 0.00 in0.0 mm 0.00 in0.0 mm 0.01 in0.3 mm
11:36 AM 39.6°F4.2°C 37.2°F2.9°C 91% 2.0 mph S3.2 kmh S 5.0 mph8.0 kmh 29.86 in1011.2 mb 0.00 in0.0 mm 0.00 in0.0 mm 0.01 in0.3 mm
11:39 AM 39.7°F4.3°C 37.2°F2.9°C 91% 1.0 mph S1.6 kmh S 3.0 mph4.8 kmh 29.86 in1011.2 mb 0.00 in0.0 mm 0.00 in0.0 mm 0.01 in0.3 mm
11:42 AM 39.7°F4.3°C 37.2°F2.9°C 91% 1.0 mph S1.6 kmh S 4.0 mph6.4 kmh 29.86 in1011.2 mb 0.00 in0.0 mm 0.00 in0.0 mm 0.01 in0.3 mm
11:45 AM 39.7°F4.3°C 37.0°F2.8°C 90% 2.0 mph SW3.2 kmh SW 9.0 mph14.5 kmh 29.86 in1011.2 mb 0.00 in0.0 mm 0.00 in0.0 mm 0.01 in0.3 mm
11:48 AM 39.9°F4.4°C 37.2°F2.9°C 90% 3.0 mph W4.8 kmh W 10.0 mph16.1 kmh 29.86 in1011.2 mb 0.00 in0.0 mm 0.00 in0.0 mm 0.01 in0.3 mm
11:51 AM 39.9°F4.4°C 37.2°F2.9°C 90% 4.0 mph W6.4 kmh W 10.0 mph16.1 kmh 29.86 in1011.2 mb 0.00 in0.0 mm 0.00 in0.0 mm 0.01 in0.3 mm
11:54 AM 40.1°F4.5°C 37.4°F3.0°C 90% 4.0 mph W6.4 kmh W 10.0 mph16.1 kmh 29.86 in1011.2 mb 0.00 in0.0 mm 0.00 in0.0 mm 0.01 in0.3 mm
11:57 AM 40.3°F4.6°C 37.6°F3.1°C 90% 4.0 mph W6.4 kmh W 10.0 mph16.1 kmh 29.86 in1011.2 mb 0.00 in0.0 mm 0.00 in0.0 mm 0.01 in0.3 mm
12:00 PM 40.5°F4.7°C 37.4°F3.0°C 89% 4.0 mph W6.4 kmh W 15.0 mph24.1 kmh 29.85 in1010.8 mb 0.00 in0.0 mm 0.00 in0.0 mm 0.01 in0.3 mm
12:03 PM 40.6°F4.8°C 37.4°F3.0°C 88% 5.0 mph W8.0 kmh W 15.0 mph24.1 kmh 29.85 in1010.8 mb 0.00 in0.0 mm 0.00 in0.0 mm 0.01 in0.3 mm
12:06 PM 40.6°F4.8°C 37.4°F3.0°C 88% 6.0 mph W9.7 kmh W 15.0 mph24.1 kmh 29.85 in1010.8 mb 0.00 in0.0 mm 0.00 in0.0 mm 0.01 in0.3 mm
12:09 PM 40.8°F4.9°C 37.2°F2.9°C 87% 6.0 mph W9.7 kmh W 16.0 mph25.7 kmh 29.85 in1010.8 mb 0.00 in0.0 mm 0.00 in0.0 mm 0.01 in0.3 mm
12:12 PM 41.0°F5.0°C 37.4°F3.0°C 87% 6.0 mph W9.7 kmh W 16.0 mph25.7 kmh 29.85 in1010.8 mb 0.00 in0.0 mm 0.00 in0.0 mm 0.01 in0.3 mm
12:15 PM 41.2°F5.1°C 37.2°F2.9°C 86% 6.0 mph W9.7 kmh W 16.0 mph25.7 kmh 29.85 in1010.8 mb 0.00 in0.0 mm 0.00 in0.0 mm 0.01 in0.3 mm
12:18 PM 41.2°F5.1°C 37.4°F3.0°C 86% 6.0 mph W9.7 kmh W 14.0 mph22.5 kmh 29.85 in1010.8 mb 0.00 in0.0 mm 0.00 in0.0 mm 0.01 in0.3 mm
12:21 PM 41.4°F5.2°C 37.4°F3.0°C 86% 5.0 mph W8.0 kmh W 13.0 mph20.9 kmh 29.85 in1010.8 mb 0.00 in0.0 mm 0.00 in0.0 mm 0.01 in0.3 mm
12:24 PM 41.4°F5.2°C 37.2°F2.9°C 85% 6.0 mph W9.7 kmh W 13.0 mph20.9 kmh 29.85 in1010.8 mb 0.00 in0.0 mm 0.00 in0.0 mm 0.01 in0.3 mm
12:27 PM 41.5°F5.3°C 37.4°F3.0°C 85% 6.0 mph W9.7 kmh W 13.0 mph20.9 kmh 29.85 in1010.8 mb 0.00 in0.0 mm 0.00 in0.0 mm 0.01 in0.3 mm
12:30 PM 41.5°F5.3°C 37.4°F3.0°C 85% 6.0 mph W9.7 kmh W 13.0 mph20.9 kmh 29.85 in1010.8 mb 0.00 in0.0 mm 0.00 in0.0 mm 0.01 in0.3 mm
12:33 PM 41.7°F5.4°C 37.6°F3.1°C 85% 6.0 mph W9.7 kmh W 13.0 mph20.9 kmh 29.85 in1010.8 mb 0.01 in0.3 mm 0.20 in5.1 mm 0.02 in0.5 mm
12:36 PM 41.7°F5.4°C 37.2°F2.9°C 84% 5.0 mph W8.0 kmh W 13.0 mph20.9 kmh 29.85 in1010.8 mb 0.01 in0.3 mm 0.00 in0.0 mm 0.02 in0.5 mm
12:39 PM 41.7°F5.4°C 37.2°F2.9°C 84% 6.0 mph W9.7 kmh W 13.0 mph20.9 kmh 29.85 in1010.8 mb 0.01 in0.3 mm 0.00 in0.0 mm 0.02 in0.5 mm
12:42 PM 41.7°F5.4°C 37.2°F2.9°C 84% 5.0 mph W8.0 kmh W 13.0 mph20.9 kmh 29.85 in1010.8 mb 0.01 in0.3 mm 0.00 in0.0 mm 0.02 in0.5 mm
12:45 PM 41.7°F5.4°C 37.2°F2.9°C 84% 6.0 mph W9.7 kmh W 13.0 mph20.9 kmh 29.85 in1010.8 mb 0.01 in0.3 mm 0.00 in0.0 mm 0.02 in0.5 mm
12:48 PM 41.7°F5.4°C 37.4°F3.0°C 84% 6.0 mph W9.7 kmh W 13.0 mph20.9 kmh 29.85 in1010.8 mb 0.01 in0.3 mm 0.00 in0.0 mm 0.02 in0.5 mm
12:51 PM 41.9°F5.5°C 37.4°F3.0°C 84% 7.0 mph W11.3 kmh W 13.0 mph20.9 kmh 29.85 in1010.8 mb 0.01 in0.3 mm 0.00 in0.0 mm 0.02 in0.5 mm
12:54 PM 42.1°F5.6°C 37.6°F3.1°C 84% 7.0 mph W11.3 kmh W 14.0 mph22.5 kmh 29.85 in1010.8 mb 0.01 in0.3 mm 0.00 in0.0 mm 0.02 in0.5 mm
12:57 PM 42.1°F5.6°C 37.6°F3.1°C 84% 6.0 mph W9.7 kmh W 16.0 mph25.7 kmh 29.85 in1010.8 mb 0.01 in0.3 mm 0.00 in0.0 mm 0.02 in0.5 mm
01:00 PM 42.3°F5.7°C 37.4°F3.0°C 83% 6.0 mph W9.7 kmh W 16.0 mph25.7 kmh 29.85 in1010.8 mb 0.01 in0.3 mm 0.00 in0.0 mm 0.02 in0.5 mm
01:03 PM 42.3°F5.7°C 37.8°F3.2°C 84% 6.0 mph W9.7 kmh W 16.0 mph25.7 kmh 29.85 in1010.8 mb 0.01 in0.3 mm 0.00 in0.0 mm 0.02 in0.5 mm
01:06 PM 42.4°F5.8°C 37.9°F3.3°C 84% 6.0 mph W9.7 kmh W 16.0 mph25.7 kmh 29.85 in1010.8 mb 0.01 in0.3 mm 0.00 in0.0 mm 0.02 in0.5 mm
01:09 PM 42.6°F5.9°C 38.1°F3.4°C 84% 5.0 mph W8.0 kmh W 12.0 mph19.3 kmh 29.85 in1010.8 mb 0.01 in0.3 mm 0.00 in0.0 mm 0.02 in0.5 mm
01:12 PM 42.6°F5.9°C 37.9°F3.3°C 83% 5.0 mph W8.0 kmh W 15.0 mph24.1 kmh 29.85 in1010.8 mb 0.01 in0.3 mm 0.00 in0.0 mm 0.02 in0.5 mm
01:15 PM 42.6°F5.9°C 37.9°F3.3°C 83% 6.0 mph W9.7 kmh W 15.0 mph24.1 kmh 29.85 in1010.8 mb 0.01 in0.3 mm 0.00 in0.0 mm 0.02 in0.5 mm
01:18 PM 42.6°F5.9°C 37.9°F3.3°C 83% 6.0 mph WSW9.7 kmh WSW 15.0 mph24.1 kmh 29.85 in1010.8 mb 0.01 in0.3 mm 0.00 in0.0 mm 0.02 in0.5 mm
01:21 PM 42.8°F6.0°C 37.9°F3.3°C 83% 7.0 mph WSW11.3 kmh WSW 15.0 mph24.1 kmh 29.84 in1010.5 mb 0.01 in0.3 mm 0.00 in0.0 mm 0.02 in0.5 mm
01:24 PM 42.6°F5.9°C 37.9°F3.3°C 83% 7.0 mph WSW11.3 kmh WSW 17.0 mph27.4 kmh 29.84 in1010.5 mb 0.01 in0.3 mm 0.00 in0.0 mm 0.02 in0.5 mm
01:27 PM 42.6°F5.9°C 37.6°F3.1°C 82% 8.0 mph WSW12.9 kmh WSW 17.0 mph27.4 kmh 29.84 in1010.5 mb 0.01 in0.3 mm 0.00 in0.0 mm 0.02 in0.5 mm
01:30 PM 42.6°F5.9°C 37.4°F3.0°C 82% 9.0 mph WSW14.5 kmh WSW 17.0 mph27.4 kmh 29.84 in1010.5 mb 0.00 in0.0 mm 0.00 in0.0 mm 0.02 in0.5 mm
01:33 PM 42.4°F5.8°C 37.2°F2.9°C 82% 10.0 mph WSW16.1 kmh WSW 16.0 mph25.7 kmh 29.84 in1010.5 mb 0.00 in0.0 mm 0.00 in0.0 mm 0.02 in0.5 mm
01:36 PM 42.3°F5.7°C 37.2°F2.9°C 82% 9.0 mph WSW14.5 kmh WSW 16.0 mph25.7 kmh 29.84 in1010.5 mb 0.00 in0.0 mm 0.00 in0.0 mm 0.02 in0.5 mm
01:39 PM 42.3°F5.7°C 37.2°F2.9°C 82% 8.0 mph WSW12.9 kmh WSW 15.0 mph24.1 kmh 29.84 in1010.5 mb 0.00 in0.0 mm 0.00 in0.0 mm 0.02 in0.5 mm
01:42 PM 42.1°F5.6°C 37.0°F2.8°C 82% 8.0 mph WSW12.9 kmh WSW 14.0 mph22.5 kmh 29.84 in1010.5 mb 0.00 in0.0 mm 0.00 in0.0 mm 0.02 in0.5 mm
01:45 PM 42.1°F5.6°C 37.0°F2.8°C 82% 8.0 mph WSW12.9 kmh WSW 14.0 mph22.5 kmh 29.84 in1010.5 mb 0.00 in0.0 mm 0.00 in0.0 mm 0.02 in0.5 mm
01:48 PM 42.1°F5.6°C 36.9°F2.7°C 82% 8.0 mph WSW12.9 kmh WSW 16.0 mph25.7 kmh 29.84 in1010.5 mb 0.00 in0.0 mm 0.00 in0.0 mm 0.02 in0.5 mm
01:51 PM 41.9°F5.5°C 36.9°F2.7°C 82% 8.0 mph W12.9 kmh W 16.0 mph25.7 kmh 29.84 in1010.5 mb 0.00 in0.0 mm 0.00 in0.0 mm 0.02 in0.5 mm
01:54 PM 41.9°F5.5°C 36.9°F2.7°C 82% 7.0 mph W11.3 kmh W 16.0 mph25.7 kmh 29.84 in1010.5 mb 0.00 in0.0 mm 0.00 in0.0 mm 0.02 in0.5 mm
01:57 PM 41.9°F5.5°C 36.9°F2.7°C 82% 6.0 mph W9.7 kmh W 14.0 mph22.5 kmh 29.84 in1010.5 mb 0.00 in0.0 mm 0.00 in0.0 mm 0.02 in0.5 mm
02:00 PM 41.9°F5.5°C 36.9°F2.7°C 82% 6.0 mph W9.7 kmh W 13.0 mph20.9 kmh 29.84 in1010.5 mb 0.00 in0.0 mm 0.00 in0.0 mm 0.02 in0.5 mm
02:03 PM 41.9°F5.5°C 36.9°F2.7°C 82% 6.0 mph W9.7 kmh W 13.0 mph20.9 kmh 29.84 in1010.5 mb 0.00 in0.0 mm 0.00 in0.0 mm 0.02 in0.5 mm
02:06 PM 41.9°F5.5°C 36.9°F2.7°C 82% 6.0 mph W9.7 kmh W 13.0 mph20.9 kmh 29.83 in1010.2 mb 0.00 in0.0 mm 0.00 in0.0 mm 0.02 in0.5 mm
02:09 PM 41.9°F5.5°C 36.9°F2.7°C 82% 6.0 mph W9.7 kmh W 14.0 mph22.5 kmh 29.84 in1010.5 mb 0.00 in0.0 mm 0.00 in0.0 mm 0.02 in0.5 mm
02:12 PM 41.9°F5.5°C 36.9°F2.7°C 82% 5.0 mph W8.0 kmh W 14.0 mph22.5 kmh 29.84 in1010.5 mb 0.00 in0.0 mm 0.00 in0.0 mm 0.02 in0.5 mm
02:15 PM 42.1°F5.6°C 36.9°F2.7°C 82% 6.0 mph W9.7 kmh W 14.0 mph22.5 kmh 29.83 in1010.2 mb 0.00 in0.0 mm 0.00 in0.0 mm 0.02 in0.5 mm
02:18 PM 42.1°F5.6°C 37.0°F2.8°C 82% 6.0 mph W9.7 kmh W 13.0 mph20.9 kmh 29.83 in1010.2 mb 0.00 in0.0 mm 0.00 in0.0 mm 0.02 in0.5 mm
02:21 PM 42.1°F5.6°C 37.0°F2.8°C 82% 6.0 mph W9.7 kmh W 13.0 mph20.9 kmh 29.84 in1010.5 mb 0.00 in0.0 mm 0.00 in0.0 mm 0.02 in0.5 mm
02:24 PM 42.1°F5.6°C 37.0°F2.8°C 82% 7.0 mph W11.3 kmh W 13.0 mph20.9 kmh 29.83 in1010.2 mb 0.00 in0.0 mm 0.00 in0.0 mm 0.02 in0.5 mm
02:27 PM 42.3°F5.7°C 37.0°F2.8°C 82% 6.0 mph W9.7 kmh W 13.0 mph20.9 kmh 29.83 in1010.2 mb 0.00 in0.0 mm 0.00 in0.0 mm 0.02 in0.5 mm
02:30 PM 42.4°F5.8°C 37.2°F2.9°C 82% 5.0 mph W8.0 kmh W 12.0 mph19.3 kmh 29.83 in1010.2 mb 0.00 in0.0 mm 0.00 in0.0 mm 0.02 in0.5 mm
02:33 PM 42.6°F5.9°C 37.6°F3.1°C 82% 5.0 mph WNW8.0 kmh WNW 12.0 mph19.3 kmh 29.84 in1010.5 mb 0.00 in0.0 mm 0.00 in0.0 mm 0.02 in0.5 mm
02:36 PM 43.0°F6.1°C 37.6°F3.1°C 81% 5.0 mph WNW8.0 kmh WNW 12.0 mph19.3 kmh 29.84 in1010.5 mb 0.00 in0.0 mm 0.00 in0.0 mm 0.02 in0.5 mm
02:39 PM 43.2°F6.2°C 37.8°F3.2°C 81% 6.0 mph WNW9.7 kmh WNW 12.0 mph19.3 kmh 29.83 in1010.2 mb 0.00 in0.0 mm 0.00 in0.0 mm 0.02 in0.5 mm
02:42 PM 43.3°F6.3°C 37.9°F3.3°C 81% 5.0 mph WNW8.0 kmh WNW 12.0 mph19.3 kmh 29.83 in1010.2 mb 0.00 in0.0 mm 0.00 in0.0 mm 0.02 in0.5 mm
02:45 PM 43.5°F6.4°C 37.8°F3.2°C 80% 6.0 mph WNW9.7 kmh WNW 12.0 mph19.3 kmh 29.84 in1010.5 mb 0.00 in0.0 mm 0.00 in0.0 mm 0.02 in0.5 mm
02:48 PM 43.5°F6.4°C 37.8°F3.2°C 80% 5.0 mph WNW8.0 kmh WNW 12.0 mph19.3 kmh 29.84 in1010.5 mb 0.00 in0.0 mm 0.00 in0.0 mm 0.02 in0.5 mm
02:51 PM 43.7°F6.5°C 38.3°F3.5°C 81% 5.0 mph W8.0 kmh W 15.0 mph24.1 kmh 29.84 in1010.5 mb 0.00 in0.0 mm 0.00 in0.0 mm 0.02 in0.5 mm
02:54 PM 43.9°F6.6°C 38.1°F3.4°C 80% 5.0 mph W8.0 kmh W 15.0 mph24.1 kmh 29.84 in1010.5 mb 0.00 in0.0 mm 0.00 in0.0 mm 0.02 in0.5 mm
02:57 PM 43.9°F6.6°C 38.1°F3.4°C 80% 6.0 mph W9.7 kmh W 18.0 mph29.0 kmh 29.84 in1010.5 mb 0.00 in0.0 mm 0.00 in0.0 mm 0.02 in0.5 mm
03:00 PM 43.9°F6.6°C 37.8°F3.2°C 79% 7.0 mph W11.3 kmh W 18.0 mph29.0 kmh 29.84 in1010.5 mb 0.00 in0.0 mm 0.00 in0.0 mm 0.02 in0.5 mm
03:03 PM 43.9°F6.6°C 38.1°F3.4°C 80% 6.0 mph W9.7 kmh W 18.0 mph29.0 kmh 29.84 in1010.5 mb 0.00 in0.0 mm 0.00 in0.0 mm 0.02 in0.5 mm
03:06 PM 43.7°F6.5°C 37.9°F3.3°C 80% 6.0 mph W9.7 kmh W 13.0 mph20.9 kmh 29.84 in1010.5 mb 0.00 in0.0 mm 0.00 in0.0 mm 0.02 in0.5 mm
03:09 PM 43.5°F6.4°C 37.6°F3.1°C 79% 5.0 mph W8.0 kmh W 13.0 mph20.9 kmh 29.84 in1010.5 mb 0.00 in0.0 mm 0.00 in0.0 mm 0.02 in0.5 mm
03:12 PM 43.5°F6.4°C 37.8°F3.2°C 80% 5.0 mph W8.0 kmh W 12.0 mph19.3 kmh 29.84 in1010.5 mb 0.00 in0.0 mm 0.00 in0.0 mm 0.02 in0.5 mm
03:15 PM 43.3°F6.3°C 37.6°F3.1°C 80% 6.0 mph W9.7 kmh W 14.0 mph22.5 kmh 29.84 in1010.5 mb 0.00 in0.0 mm 0.00 in0.0 mm 0.02 in0.5 mm
03:18 PM 43.2°F6.2°C 37.4°F3.0°C 80% 6.0 mph W9.7 kmh W 14.0 mph22.5 kmh 29.83 in1010.2 mb 0.00 in0.0 mm 0.00 in0.0 mm 0.02 in0.5 mm
03:21 PM 43.0°F6.1°C 37.2°F2.9°C 80% 7.0 mph W11.3 kmh W 14.0 mph22.5 kmh 29.83 in1010.2 mb 0.00 in0.0 mm 0.00 in0.0 mm 0.02 in0.5 mm
03:24 PM 42.8°F6.0°C 37.0°F2.8°C 80% 6.0 mph W9.7 kmh W 14.0 mph22.5 kmh 29.83 in1010.2 mb 0.00 in0.0 mm 0.00 in0.0 mm 0.02 in0.5 mm
03:27 PM 42.6°F5.9°C 37.0°F2.8°C 80% 6.0 mph W9.7 kmh W 13.0 mph20.9 kmh 29.83 in1010.2 mb 0.00 in0.0 mm 0.00 in0.0 mm 0.02 in0.5 mm
03:30 PM 42.4°F5.8°C 36.7°F2.6°C 80% 5.0 mph W8.0 kmh W 13.0 mph20.9 kmh 29.83 in1010.2 mb 0.00 in0.0 mm 0.00 in0.0 mm 0.02 in0.5 mm
03:33 PM 42.4°F5.8°C 36.7°F2.6°C 80% 4.0 mph W6.4 kmh W 11.0 mph17.7 kmh 29.83 in1010.2 mb 0.00 in0.0 mm 0.00 in0.0 mm 0.02 in0.5 mm
03:36 PM 42.3°F5.7°C 36.9°F2.7°C 81% 4.0 mph W6.4 kmh W 11.0 mph17.7 kmh 29.83 in1010.2 mb 0.00 in0.0 mm 0.00 in0.0 mm 0.02 in0.5 mm
03:39 PM 42.3°F5.7°C 36.9°F2.7°C 81% 4.0 mph W6.4 kmh W 9.0 mph14.5 kmh 29.83 in1010.2 mb 0.00 in0.0 mm 0.00 in0.0 mm 0.02 in0.5 mm
03:42 PM 42.1°F5.6°C 36.7°F2.6°C 81% 3.0 mph W4.8 kmh W 9.0 mph14.5 kmh 29.82 in1009.8 mb 0.00 in0.0 mm 0.00 in0.0 mm 0.02 in0.5 mm
03:45 PM 41.9°F5.5°C 36.9°F2.7°C 82% 3.0 mph W4.8 kmh W 9.0 mph14.5 kmh 29.83 in1010.2 mb 0.00 in0.0 mm 0.00 in0.0 mm 0.02 in0.5 mm
03:48 PM 41.9°F5.5°C 36.9°F2.7°C 82% 3.0 mph W4.8 kmh W 9.0 mph14.5 kmh 29.83 in1010.2 mb 0.00 in0.0 mm 0.00 in0.0 mm 0.02 in0.5 mm
03:51 PM 41.7°F5.4°C 36.7°F2.6°C 82% 3.0 mph W4.8 kmh W 9.0 mph14.5 kmh 29.83 in1010.2 mb 0.00 in0.0 mm 0.00 in0.0 mm 0.02 in0.5 mm
03:54 PM 41.7°F5.4°C 36.7°F2.6°C 82% 3.0 mph W4.8 kmh W 9.0 mph14.5 kmh 29.83 in1010.2 mb 0.00 in0.0 mm 0.00 in0.0 mm 0.02 in0.5 mm
03:57 PM 41.5°F5.3°C 36.5°F2.5°C 82% 3.0 mph W4.8 kmh W 9.0 mph14.5 kmh 29.83 in1010.2 mb 0.00 in0.0 mm 0.00 in0.0 mm 0.02 in0.5 mm
04:00 PM 41.5°F5.3°C 36.5°F2.5°C 82% 3.0 mph W4.8 kmh W 9.0 mph14.5 kmh 29.84 in1010.5 mb 0.00 in0.0 mm 0.00 in0.0 mm 0.02 in0.5 mm
04:03 PM 41.5°F5.3°C 36.5°F2.5°C 82% 3.0 mph W4.8 kmh W 9.0 mph14.5 kmh 29.83 in1010.2 mb 0.00 in0.0 mm 0.00 in0.0 mm 0.02 in0.5 mm
04:06 PM 41.5°F5.3°C 36.5°F2.5°C 82% 3.0 mph W4.8 kmh W 9.0 mph14.5 kmh 29.83 in1010.2 mb 0.00 in0.0 mm 0.00 in0.0 mm 0.02 in0.5 mm
04:09 PM 41.5°F5.3°C 36.5°F2.5°C 82% 4.0 mph W6.4 kmh W 9.0 mph14.5 kmh 29.83 in1010.2 mb 0.00 in0.0 mm 0.00 in0.0 mm 0.02 in0.5 mm
04:12 PM 41.4°F5.2°C 36.3°F2.4°C 82% 3.0 mph WSW4.8 kmh WSW 8.0 mph12.9 kmh 29.83 in1010.2 mb 0.00 in0.0 mm 0.00 in0.0 mm 0.02 in0.5 mm
04:15 PM 41.4°F5.2°C 36.5°F2.5°C 83% 3.0 mph WSW4.8 kmh WSW 6.0 mph9.7 kmh 29.83 in1010.2 mb 0.00 in0.0 mm 0.00 in0.0 mm 0.02 in0.5 mm
04:18 PM 41.2°F5.1°C 36.1°F2.3°C 82% 3.0 mph WSW4.8 kmh WSW 6.0 mph9.7 kmh 29.83 in1010.2 mb 0.00 in0.0 mm 0.00 in0.0 mm 0.02 in0.5 mm
04:21 PM 41.2°F5.1°C 36.0°F2.2°C 82% 3.0 mph WSW4.8 kmh WSW 6.0 mph9.7 kmh 29.83 in1010.2 mb 0.00 in0.0 mm 0.00 in0.0 mm 0.02 in0.5 mm
04:24 PM 41.0°F5.0°C 36.3°F2.4°C 83% 3.0 mph W4.8 kmh W 9.0 mph14.5 kmh 29.83 in1010.2 mb 0.00 in0.0 mm 0.00 in0.0 mm 0.02 in0.5 mm
04:27 PM 40.8°F4.9°C 37.6°F3.1°C 88% 3.0 mph W4.8 kmh W 9.0 mph14.5 kmh 29.83 in1010.2 mb 0.00 in0.0 mm 0.00 in0.0 mm 0.02 in0.5 mm
04:30 PM 40.8°F4.9°C 36.0°F2.2°C 83% 3.0 mph WSW4.8 kmh WSW 9.0 mph14.5 kmh 29.84 in1010.5 mb 0.00 in0.0 mm 0.00 in0.0 mm 0.02 in0.5 mm
04:33 PM 40.8°F4.9°C 36.3°F2.4°C 84% 3.0 mph WSW4.8 kmh WSW 6.0 mph9.7 kmh 29.84 in1010.5 mb 0.00 in0.0 mm 0.00 in0.0 mm 0.02 in0.5 mm
04:36 PM 40.8°F4.9°C 36.3°F2.4°C 84% 3.0 mph WSW4.8 kmh WSW 6.0 mph9.7 kmh 29.84 in1010.5 mb 0.00 in0.0 mm 0.00 in0.0 mm 0.02 in0.5 mm
04:39 PM 40.8°F4.9°C 36.3°F2.4°C 84% 3.0 mph WSW4.8 kmh WSW 6.0 mph9.7 kmh 29.84 in1010.5 mb 0.00 in0.0 mm 0.00 in0.0 mm 0.02 in0.5 mm
04:42 PM 40.6°F4.8°C 36.3°F2.4°C 84% 3.0 mph WSW4.8 kmh WSW 7.0 mph11.3 kmh 29.83 in1010.2 mb 0.00 in0.0 mm 0.00 in0.0 mm 0.02 in0.5 mm
04:45 PM 40.6°F4.8°C 36.5°F2.5°C 85% 3.0 mph SW4.8 kmh SW 7.0 mph11.3 kmh 29.83 in1010.2 mb 0.00 in0.0 mm 0.00 in0.0 mm 0.02 in0.5 mm
04:48 PM 40.6°F4.8°C 36.5°F2.5°C 85% 3.0 mph SW4.8 kmh SW 7.0 mph11.3 kmh 29.83 in1010.2 mb 0.00 in0.0 mm 0.00 in0.0 mm 0.02 in0.5 mm
04:51 PM 40.6°F4.8°C 36.5°F2.5°C 85% 3.0 mph SW4.8 kmh SW 6.0 mph9.7 kmh 29.82 in1009.8 mb 0.00 in0.0 mm 0.00 in0.0 mm 0.02 in0.5 mm
04:54 PM 40.5°F4.7°C 36.3°F2.4°C 85% 3.0 mph SW4.8 kmh SW 6.0 mph9.7 kmh 29.82 in1009.8 mb 0.00 in0.0 mm 0.00 in0.0 mm 0.02 in0.5 mm
04:57 PM 40.5°F4.7°C 36.3°F2.4°C 85% 3.0 mph SW4.8 kmh SW 6.0 mph9.7 kmh 29.82 in1009.8 mb 0.00 in0.0 mm 0.00 in0.0 mm 0.02 in0.5 mm
05:00 PM 40.3°F4.6°C 36.1°F2.3°C 85% 3.0 mph SSW4.8 kmh SSW 6.0 mph9.7 kmh 29.82 in1009.8 mb 0.00 in0.0 mm 0.00 in0.0 mm 0.02 in0.5 mm
05:03 PM 40.3°F4.6°C 36.5°F2.5°C 86% 3.0 mph SSW4.8 kmh SSW 6.0 mph9.7 kmh 29.82 in1009.8 mb 0.00 in0.0 mm 0.00 in0.0 mm 0.02 in0.5 mm
05:06 PM 40.3°F4.6°C 36.5°F2.5°C 86% 3.0 mph SSW4.8 kmh SSW 8.0 mph12.9 kmh 29.82 in1009.8 mb 0.00 in0.0 mm 0.00 in0.0 mm 0.02 in0.5 mm
05:09 PM 40.3°F4.6°C 36.3°F2.4°C 86% 3.0 mph SW4.8 kmh SW 8.0 mph12.9 kmh 29.82 in1009.8 mb 0.00 in0.0 mm 0.00 in0.0 mm 0.02 in0.5 mm
05:12 PM 40.3°F4.6°C 36.3°F2.4°C 86% 3.0 mph SW4.8 kmh SW 8.0 mph12.9 kmh 29.82 in1009.8 mb 0.00 in0.0 mm 0.00 in0.0 mm 0.02 in0.5 mm
05:15 PM 40.1°F4.5°C 36.3°F2.4°C 86% 2.0 mph SW3.2 kmh SW 8.0 mph12.9 kmh 29.82 in1009.8 mb 0.00 in0.0 mm 0.00 in0.0 mm 0.02 in0.5 mm
05:18 PM 39.9°F4.4°C 36.1°F2.3°C 86% 2.0 mph WSW3.2 kmh WSW 5.0 mph8.0 kmh 29.82 in1009.8 mb 0.00 in0.0 mm 0.00 in0.0 mm 0.02 in0.5 mm
05:21 PM 39.9°F4.4°C 36.1°F2.3°C 86% 2.0 mph WSW3.2 kmh WSW 5.0 mph8.0 kmh 29.82 in1009.8 mb 0.00 in0.0 mm 0.00 in0.0 mm 0.02 in0.5 mm
05:24 PM 39.9°F4.4°C 36.3°F2.4°C 87% 3.0 mph SW4.8 kmh SW 6.0 mph9.7 kmh 29.82 in1009.8 mb 0.00 in0.0 mm 0.00 in0.0 mm 0.02 in0.5 mm
05:27 PM 39.9°F4.4°C 36.3°F2.4°C 87% 3.0 mph SW4.8 kmh SW 6.0 mph9.7 kmh 29.82 in1009.8 mb 0.00 in0.0 mm 0.00 in0.0 mm 0.02 in0.5 mm
05:30 PM 39.7°F4.3°C 36.0°F2.2°C 86% 3.0 mph SW4.8 kmh SW 6.0 mph9.7 kmh 29.82 in1009.8 mb 0.00 in0.0 mm 0.00 in0.0 mm 0.02 in0.5 mm
05:33 PM 39.7°F4.3°C 35.8°F2.1°C 86% 3.0 mph SW4.8 kmh SW 6.0 mph9.7 kmh 29.82 in1009.8 mb 0.00 in0.0 mm 0.00 in0.0 mm 0.02 in0.5 mm
05:36 PM 39.6°F4.2°C 35.8°F2.1°C 86% 3.0 mph SW4.8 kmh SW 6.0 mph9.7 kmh 29.82 in1009.8 mb 0.00 in0.0 mm 0.00 in0.0 mm 0.02 in0.5 mm
05:39 PM 39.6°F4.2°C 36.0°F2.2°C 87% 3.0 mph WSW4.8 kmh WSW 6.0 mph9.7 kmh 29.82 in1009.8 mb 0.00 in0.0 mm 0.00 in0.0 mm 0.02 in0.5 mm
05:42 PM 39.4°F4.1°C 35.8°F2.1°C 87% 3.0 mph WSW4.8 kmh WSW 7.0 mph11.3 kmh 29.81 in1009.5 mb 0.00 in0.0 mm 0.00 in0.0 mm 0.02 in0.5 mm
05:45 PM 39.4°F4.1°C 35.8°F2.1°C 87% 3.0 mph WSW4.8 kmh WSW 7.0 mph11.3 kmh 29.81 in1009.5 mb 0.00 in0.0 mm 0.00 in0.0 mm 0.02 in0.5 mm
05:48 PM 39.4°F4.1°C 35.8°F2.1°C 87% 3.0 mph W4.8 kmh W 7.0 mph11.3 kmh 29.81 in1009.5 mb 0.00 in0.0 mm 0.00 in0.0 mm 0.02 in0.5 mm
05:51 PM 39.4°F4.1°C 35.8°F2.1°C 87% 3.0 mph W4.8 kmh W 9.0 mph14.5 kmh 29.81 in1009.5 mb 0.00 in0.0 mm 0.00 in0.0 mm 0.02 in0.5 mm
05:54 PM 39.2°F4.0°C 35.6°F2.0°C 87% 3.0 mph W4.8 kmh W 9.0 mph14.5 kmh 29.81 in1009.5 mb 0.00 in0.0 mm 0.00 in0.0 mm 0.02 in0.5 mm
05:57 PM 39.2°F4.0°C 35.6°F2.0°C 87% 3.0 mph W4.8 kmh W 9.0 mph14.5 kmh 29.81 in1009.5 mb 0.00 in0.0 mm 0.00 in0.0 mm 0.02 in0.5 mm
06:00 PM 39.0°F3.9°C 35.6°F2.0°C 87% 3.0 mph W4.8 kmh W 7.0 mph11.3 kmh 29.81 in1009.5 mb 0.00 in0.0 mm 0.00 in0.0 mm 0.02 in0.5 mm
06:03 PM 39.0°F3.9°C 35.6°F2.0°C 87% 3.0 mph W4.8 kmh W 7.0 mph11.3 kmh 29.81 in1009.5 mb 0.00 in0.0 mm 0.00 in0.0 mm 0.02 in0.5 mm
06:06 PM 39.0°F3.9°C 35.4°F1.9°C 87% 3.0 mph W4.8 kmh W 7.0 mph11.3 kmh 29.81 in1009.5 mb 0.00 in0.0 mm 0.00 in0.0 mm 0.02 in0.5 mm
06:09 PM 38.8°F3.8°C 35.4°F1.9°C 87% 3.0 mph W4.8 kmh W 7.0 mph11.3 kmh 29.81 in1009.5 mb 0.00 in0.0 mm 0.00 in0.0 mm 0.02 in0.5 mm
06:12 PM 38.8°F3.8°C 35.2°F1.8°C 87% 3.0 mph W4.8 kmh W 7.0 mph11.3 kmh 29.81 in1009.5 mb 0.00 in0.0 mm 0.00 in0.0 mm 0.02 in0.5 mm
06:15 PM 38.7°F3.7°C 35.2°F1.8°C 87% 3.0 mph W4.8 kmh W 7.0 mph11.3 kmh 29.82 in1009.8 mb 0.00 in0.0 mm 0.00 in0.0 mm 0.02 in0.5 mm
06:18 PM 38.7°F3.7°C 35.2°F1.8°C 87% 3.0 mph WSW4.8 kmh WSW 6.0 mph9.7 kmh 29.82 in1009.8 mb 0.00 in0.0 mm 0.00 in0.0 mm 0.02 in0.5 mm
06:21 PM 38.7°F3.7°C 35.4°F1.9°C 88% 3.0 mph WSW4.8 kmh WSW 6.0 mph9.7 kmh 29.82 in1009.8 mb 0.00 in0.0 mm 0.00 in0.0 mm 0.02 in0.5 mm
06:24 PM 38.7°F3.7°C 35.4°F1.9°C 88% 2.0 mph WSW3.2 kmh WSW 5.0 mph8.0 kmh 29.81 in1009.5 mb 0.00 in0.0 mm 0.00 in0.0 mm 0.02 in0.5 mm
06:27 PM 38.7°F3.7°C 35.4°F1.9°C 88% 2.0 mph SW3.2 kmh SW 5.0 mph8.0 kmh 29.81 in1009.5 mb 0.00 in0.0 mm 0.00 in0.0 mm 0.02 in0.5 mm
06:30 PM 38.7°F3.7°C 35.4°F1.9°C 88% 2.0 mph SW3.2 kmh SW 4.0 mph6.4 kmh 29.81 in1009.5 mb 0.00 in0.0 mm 0.00 in0.0 mm 0.02 in0.5 mm
06:33 PM 38.5°F3.6°C 35.2°F1.8°C 88% 2.0 mph SSW3.2 kmh SSW 5.0 mph8.0 kmh 29.81 in1009.5 mb 0.00 in0.0 mm 0.00 in0.0 mm 0.02 in0.5 mm
06:36 PM 38.7°F3.7°C 35.4°F1.9°C 88% 2.0 mph SSW3.2 kmh SSW 5.0 mph8.0 kmh 29.81 in1009.5 mb 0.00 in0.0 mm 0.00 in0.0 mm 0.02 in0.5 mm
06:39 PM 38.7°F3.7°C 35.6°F2.0°C 89% 2.0 mph S3.2 kmh S 5.0 mph8.0 kmh 29.81 in1009.5 mb 0.00 in0.0 mm 0.00 in0.0 mm 0.02 in0.5 mm
06:42 PM 38.5°F3.6°C 35.6°F2.0°C 89% 2.0 mph S3.2 kmh S 4.0 mph6.4 kmh 29.81 in1009.5 mb 0.00 in0.0 mm 0.00 in0.0 mm 0.02 in0.5 mm
06:45 PM 38.7°F3.7°C 35.6°F2.0°C 89% 2.0 mph S3.2 kmh S 4.0 mph6.4 kmh 29.81 in1009.5 mb 0.00 in0.0 mm 0.00 in0.0 mm 0.02 in0.5 mm
06:48 PM 38.5°F3.6°C 35.6°F2.0°C 89% 3.0 mph SW4.8 kmh SW 6.0 mph9.7 kmh 29.81 in1009.5 mb 0.00 in0.0 mm 0.00 in0.0 mm 0.02 in0.5 mm
06:51 PM 38.5°F3.6°C 35.6°F2.0°C 89% 3.0 mph SW4.8 kmh SW 6.0 mph9.7 kmh 29.81 in1009.5 mb 0.00 in0.0 mm 0.00 in0.0 mm 0.02 in0.5 mm
06:54 PM 38.5°F3.6°C 35.6°F2.0°C 89% 3.0 mph SW4.8 kmh SW 6.0 mph9.7 kmh 29.80 in1009.1 mb 0.00 in0.0 mm 0.00 in0.0 mm 0.02 in0.5 mm
06:57 PM 38.5°F3.6°C 35.6°F2.0°C 89% 3.0 mph SW4.8 kmh SW 6.0 mph9.7 kmh 29.81 in1009.5 mb 0.00 in0.0 mm 0.00 in0.0 mm 0.02 in0.5 mm
07:00 PM 38.5°F3.6°C 35.6°F2.0°C 89% 3.0 mph SW4.8 kmh SW 5.0 mph8.0 kmh 29.81 in1009.5 mb 0.00 in0.0 mm 0.00 in0.0 mm 0.02 in0.5 mm
07:03 PM 38.5°F3.6°C 35.8°F2.1°C 90% 3.0 mph SW4.8 kmh SW 5.0 mph8.0 kmh 29.81 in1009.5 mb 0.00 in0.0 mm 0.00 in0.0 mm 0.02 in0.5 mm
07:06 PM 38.7°F3.7°C 36.0°F2.2°C 90% 3.0 mph SW4.8 kmh SW 5.0 mph8.0 kmh 29.80 in1009.1 mb 0.00 in0.0 mm 0.00 in0.0 mm 0.02 in0.5 mm
07:09 PM 38.7°F3.7°C 36.0°F2.2°C 90% 3.0 mph SW4.8 kmh SW 5.0 mph8.0 kmh 29.80 in1009.1 mb 0.00 in0.0 mm 0.00 in0.0 mm 0.02 in0.5 mm
07:12 PM 38.7°F3.7°C 36.0°F2.2°C 90% 3.0 mph SW4.8 kmh SW 5.0 mph8.0 kmh 29.80 in1009.1 mb 0.00 in0.0 mm 0.00 in0.0 mm 0.02 in0.5 mm
07:15 PM 38.7°F3.7°C 36.0°F2.2°C 90% 3.0 mph SW4.8 kmh SW 5.0 mph8.0 kmh 29.80 in1009.1 mb 0.00 in0.0 mm 0.00 in0.0 mm 0.02 in0.5 mm
07:18 PM 38.7°F3.7°C 36.0°F2.2°C 90% 3.0 mph SW4.8 kmh SW 5.0 mph8.0 kmh 29.80 in1009.1 mb 0.00 in0.0 mm 0.00 in0.0 mm 0.02 in0.5 mm
07:21 PM 38.7°F3.7°C 36.0°F2.2°C 90% 3.0 mph SW4.8 kmh SW 5.0 mph8.0 kmh 29.80 in1009.1 mb 0.00 in0.0 mm 0.00 in0.0 mm 0.02 in0.5 mm
07:24 PM 38.7°F3.7°C 36.0°F2.2°C 90% 3.0 mph SW4.8 kmh SW 5.0 mph8.0 kmh 29.80 in1009.1 mb 0.00 in0.0 mm 0.00 in0.0 mm 0.02 in0.5 mm
07:27 PM 38.7°F3.7°C 36.0°F2.2°C 90% 3.0 mph SW4.8 kmh SW 5.0 mph8.0 kmh 29.80 in1009.1 mb 0.00 in0.0 mm 0.00 in0.0 mm 0.02 in0.5 mm
07:30 PM 38.7°F3.7°C 36.0°F2.2°C 90% 3.0 mph SW4.8 kmh SW 5.0 mph8.0 kmh 29.80 in1009.1 mb 0.00 in0.0 mm 0.00 in0.0 mm 0.02 in0.5 mm
07:33 PM 38.7°F3.7°C 36.0°F2.2°C 90% 3.0 mph WSW4.8 kmh WSW 6.0 mph9.7 kmh 29.80 in1009.1 mb 0.00 in0.0 mm 0.00 in0.0 mm 0.02 in0.5 mm
07:36 PM 38.7°F3.7°C 36.0°F2.2°C 90% 3.0 mph WSW4.8 kmh WSW 8.0 mph12.9 kmh 29.80 in1009.1 mb 0.00 in0.0 mm 0.00 in0.0 mm 0.02 in0.5 mm
07:39 PM 38.8°F3.8°C 36.1°F2.3°C 90% 4.0 mph WSW6.4 kmh WSW 8.0 mph12.9 kmh 29.80 in1009.1 mb 0.00 in0.0 mm 0.00 in0.0 mm 0.02 in0.5 mm
07:42 PM 38.8°F3.8°C 36.1°F2.3°C 90% 4.0 mph WSW6.4 kmh WSW 8.0 mph12.9 kmh 29.79 in1008.8 mb 0.00 in0.0 mm 0.00 in0.0 mm 0.02 in0.5 mm
07:45 PM 38.8°F3.8°C 36.1°F2.3°C 90% 4.0 mph WSW6.4 kmh WSW 8.0 mph12.9 kmh 29.79 in1008.8 mb 0.00 in0.0 mm 0.00 in0.0 mm 0.02 in0.5 mm
07:48 PM 39.0°F3.9°C 36.3°F2.4°C 90% 4.0 mph WSW6.4 kmh WSW 8.0 mph12.9 kmh 29.79 in1008.8 mb 0.00 in0.0 mm 0.00 in0.0 mm 0.02 in0.5 mm
07:51 PM 39.0°F3.9°C 36.5°F2.5°C 90% 4.0 mph WSW6.4 kmh WSW 8.0 mph12.9 kmh 29.79 in1008.8 mb 0.00 in0.0 mm 0.00 in0.0 mm 0.02 in0.5 mm
07:54 PM 39.2°F4.0°C 36.3°F2.4°C 89% 5.0 mph WSW8.0 kmh WSW 8.0 mph12.9 kmh 29.79 in1008.8 mb 0.00 in0.0 mm 0.00 in0.0 mm 0.02 in0.5 mm
07:57 PM 39.4°F4.1°C 36.3°F2.4°C 89% 5.0 mph WSW8.0 kmh WSW 11.0 mph17.7 kmh 29.79 in1008.8 mb 0.00 in0.0 mm 0.00 in0.0 mm 0.02 in0.5 mm
08:00 PM 39.4°F4.1°C 36.3°F2.4°C 89% 5.0 mph WSW8.0 kmh WSW 11.0 mph17.7 kmh 29.79 in1008.8 mb 0.00 in0.0 mm 0.00 in0.0 mm 0.02 in0.5 mm
08:03 PM 39.4°F4.1°C 36.5°F2.5°C 89% 5.0 mph WSW8.0 kmh WSW 11.0 mph17.7 kmh 29.79 in1008.8 mb 0.00 in0.0 mm 0.00 in0.0 mm 0.02 in0.5 mm
08:06 PM 39.6°F4.2°C 36.5°F2.5°C 89% 4.0 mph WSW6.4 kmh WSW 8.0 mph12.9 kmh 29.78 in1008.5 mb 0.00 in0.0 mm 0.00 in0.0 mm 0.02 in0.5 mm
08:09 PM 39.6°F4.2°C 36.5°F2.5°C 89% 4.0 mph WSW6.4 kmh WSW 8.0 mph12.9 kmh 29.78 in1008.5 mb 0.00 in0.0 mm 0.00 in0.0 mm 0.02 in0.5 mm
08:12 PM 39.6°F4.2°C 36.5°F2.5°C 89% 4.0 mph WSW6.4 kmh WSW 8.0 mph12.9 kmh 29.78 in1008.5 mb 0.00 in0.0 mm 0.00 in0.0 mm 0.02 in0.5 mm
08:15 PM 39.6°F4.2°C 36.7°F2.6°C 89% 4.0 mph WSW6.4 kmh WSW 8.0 mph12.9 kmh 29.78 in1008.5 mb 0.00 in0.0 mm 0.00 in0.0 mm 0.02 in0.5 mm
08:18 PM 39.7°F4.3°C 36.7°F2.6°C 89% 4.0 mph WSW6.4 kmh WSW 8.0 mph12.9 kmh 29.78 in1008.5 mb 0.00 in0.0 mm 0.00 in0.0 mm 0.02 in0.5 mm
08:21 PM 39.7°F4.3°C 36.7°F2.6°C 89% 4.0 mph WSW6.4 kmh WSW 8.0 mph12.9 kmh 29.78 in1008.5 mb 0.00 in0.0 mm 0.00 in0.0 mm 0.02 in0.5 mm
08:24 PM 39.7°F4.3°C 36.9°F2.7°C 89% 4.0 mph WSW6.4 kmh WSW 8.0 mph12.9 kmh 29.78 in1008.5 mb 0.00 in0.0 mm 0.00 in0.0 mm 0.02 in0.5 mm
08:27 PM 39.7°F4.3°C 36.9°F2.7°C 89% 4.0 mph WSW6.4 kmh WSW 8.0 mph12.9 kmh 29.78 in1008.5 mb 0.00 in0.0 mm 0.00 in0.0 mm 0.02 in0.5 mm
08:30 PM 39.9°F4.4°C 36.9°F2.7°C 89% 5.0 mph WSW8.0 kmh WSW 8.0 mph12.9 kmh 29.78 in1008.5 mb 0.00 in0.0 mm 0.00 in0.0 mm 0.02 in0.5 mm
08:33 PM 39.9°F4.4°C 36.9°F2.7°C 89% 4.0 mph WSW6.4 kmh WSW 8.0 mph12.9 kmh 29.78 in1008.5 mb 0.00 in0.0 mm 0.00 in0.0 mm 0.02 in0.5 mm
08:36 PM 39.9°F4.4°C 37.0°F2.8°C 89% 4.0 mph WSW6.4 kmh WSW 8.0 mph12.9 kmh 29.78 in1008.5 mb 0.00 in0.0 mm 0.00 in0.0 mm 0.02 in0.5 mm
08:39 PM 39.9°F4.4°C 37.0°F2.8°C 89% 4.0 mph WSW6.4 kmh WSW 7.0 mph11.3 kmh 29.78 in1008.5 mb 0.00 in0.0 mm 0.00 in0.0 mm 0.02 in0.5 mm
08:42 PM 40.1°F4.5°C 37.0°F2.8°C 89% 4.0 mph WSW6.4 kmh WSW 7.0 mph11.3 kmh 29.78 in1008.5 mb 0.00 in0.0 mm 0.00 in0.0 mm 0.02 in0.5 mm
08:45 PM 40.1°F4.5°C 37.0°F2.8°C 89% 4.0 mph WSW6.4 kmh WSW 7.0 mph11.3 kmh 29.77 in1008.1 mb 0.00 in0.0 mm 0.00 in0.0 mm 0.02 in0.5 mm
08:48 PM 40.1°F4.5°C 37.0°F2.8°C 89% 4.0 mph WSW6.4 kmh WSW 6.0 mph9.7 kmh 29.77 in1008.1 mb 0.00 in0.0 mm 0.00 in0.0 mm 0.02 in0.5 mm
08:51 PM 40.1°F4.5°C 37.0°F2.8°C 89% 3.0 mph WSW4.8 kmh WSW 6.0 mph9.7 kmh 29.77 in1008.1 mb 0.00 in0.0 mm 0.00 in0.0 mm 0.02 in0.5 mm
08:54 PM 40.1°F4.5°C 37.0°F2.8°C 89% 4.0 mph WSW6.4 kmh WSW 7.0 mph11.3 kmh 29.77 in1008.1 mb 0.00 in0.0 mm 0.00 in0.0 mm 0.02 in0.5 mm
08:57 PM 40.1°F4.5°C 37.0°F2.8°C 89% 4.0 mph WSW6.4 kmh WSW 7.0 mph11.3 kmh 29.77 in1008.1 mb 0.00 in0.0 mm 0.00 in0.0 mm 0.02 in0.5 mm
09:00 PM 40.3°F4.6°C 37.6°F3.1°C 90% 4.0 mph WSW6.4 kmh WSW 7.0 mph11.3 kmh 29.77 in1008.1 mb 0.00 in0.0 mm 0.00 in0.0 mm 0.02 in0.5 mm
09:03 PM 40.3°F4.6°C 37.6°F3.1°C 90% 4.0 mph WSW6.4 kmh WSW 7.0 mph11.3 kmh 29.76 in1007.8 mb 0.00 in0.0 mm 0.00 in0.0 mm 0.02 in0.5 mm
09:06 PM 40.3°F4.6°C 37.6°F3.1°C 90% 4.0 mph WSW6.4 kmh WSW 7.0 mph11.3 kmh 29.76 in1007.8 mb 0.00 in0.0 mm 0.00 in0.0 mm 0.02 in0.5 mm
09:09 PM 40.3°F4.6°C 37.6°F3.1°C 90% 4.0 mph WSW6.4 kmh WSW 8.0 mph12.9 kmh 29.76 in1007.8 mb 0.00 in0.0 mm 0.00 in0.0 mm 0.02 in0.5 mm
09:12 PM 40.3°F4.6°C 37.6°F3.1°C 90% 4.0 mph WSW6.4 kmh WSW 8.0 mph12.9 kmh 29.76 in1007.8 mb 0.00 in0.0 mm 0.00 in0.0 mm 0.02 in0.5 mm
09:15 PM 40.3°F4.6°C 37.6°F3.1°C 90% 4.0 mph WSW6.4 kmh WSW 8.0 mph12.9 kmh 29.76 in1007.8 mb 0.00 in0.0 mm 0.00 in0.0 mm 0.02 in0.5 mm
09:18 PM 40.3°F4.6°C 37.6°F3.1°C 90% 4.0 mph WSW6.4 kmh WSW 8.0 mph12.9 kmh 29.75 in1007.5 mb 0.00 in0.0 mm 0.00 in0.0 mm 0.02 in0.5 mm
09:21 PM 40.3°F4.6°C 37.6°F3.1°C 90% 3.0 mph WSW4.8 kmh WSW 7.0 mph11.3 kmh 29.75 in1007.5 mb 0.01 in0.3 mm 0.20 in5.1 mm 0.02 in0.5 mm
09:24 PM 40.3°F4.6°C 37.6°F3.1°C 90% 3.0 mph WSW4.8 kmh WSW 7.0 mph11.3 kmh 29.75 in1007.5 mb 0.01 in0.3 mm 0.00 in0.0 mm 0.02 in0.5 mm
09:27 PM 40.3°F4.6°C 37.9°F3.3°C 91% 3.0 mph WSW4.8 kmh WSW 7.0 mph11.3 kmh 29.75 in1007.5 mb 0.01 in0.3 mm 0.00 in0.0 mm 0.02 in0.5 mm
09:30 PM 40.3°F4.6°C 37.8°F3.2°C 91% 2.0 mph WSW3.2 kmh WSW 7.0 mph11.3 kmh 29.74 in1007.1 mb 0.01 in0.3 mm 0.00 in0.0 mm 0.02 in0.5 mm
09:33 PM 40.3°F4.6°C 37.8°F3.2°C 91% 2.0 mph WSW3.2 kmh WSW 4.0 mph6.4 kmh 29.74 in1007.1 mb 0.01 in0.3 mm 0.00 in0.0 mm 0.02 in0.5 mm
09:36 PM 40.3°F4.6°C 37.8°F3.2°C 91% 2.0 mph WSW3.2 kmh WSW 4.0 mph6.4 kmh 29.74 in1007.1 mb 0.01 in0.3 mm 0.00 in0.0 mm 0.02 in0.5 mm
09:39 PM 40.3°F4.6°C 37.8°F3.2°C 91% 2.0 mph WSW3.2 kmh WSW 4.0 mph6.4 kmh 29.74 in1007.1 mb 0.01 in0.3 mm 0.00 in0.0 mm 0.02 in0.5 mm
09:42 PM 40.3°F4.6°C 37.8°F3.2°C 91% 2.0 mph WSW3.2 kmh WSW 3.0 mph4.8 kmh 29.74 in1007.1 mb 0.01 in0.3 mm 0.00 in0.0 mm 0.02 in0.5 mm
09:45 PM 40.1°F4.5°C 37.8°F3.2°C 91% 1.0 mph WSW1.6 kmh WSW 4.0 mph6.4 kmh 29.74 in1007.1 mb 0.01 in0.3 mm 0.00 in0.0 mm 0.02 in0.5 mm
09:48 PM 40.1°F4.5°C 37.8°F3.2°C 91% 2.0 mph WSW3.2 kmh WSW 4.0 mph6.4 kmh 29.73 in1006.8 mb 0.01 in0.3 mm 0.00 in0.0 mm 0.02 in0.5 mm
09:51 PM 40.1°F4.5°C 37.8°F3.2°C 91% 2.0 mph WSW3.2 kmh WSW 4.0 mph6.4 kmh 29.73 in1006.8 mb 0.02 in0.5 mm 0.20 in5.1 mm 0.03 in0.8 mm
09:54 PM 39.9°F4.4°C 37.9°F3.3°C 92% 1.0 mph WSW1.6 kmh WSW 4.0 mph6.4 kmh 29.73 in1006.8 mb 0.02 in0.5 mm 0.00 in0.0 mm 0.03 in0.8 mm
09:57 PM 39.9°F4.4°C 37.9°F3.3°C 92% 1.0 mph SW1.6 kmh SW 3.0 mph4.8 kmh 29.73 in1006.8 mb 0.02 in0.5 mm 0.00 in0.0 mm 0.03 in0.8 mm
10:00 PM 39.9°F4.4°C 37.9°F3.3°C 92% 1.0 mph SW1.6 kmh SW 3.0 mph4.8 kmh 29.73 in1006.8 mb 0.02 in0.5 mm 0.00 in0.0 mm 0.03 in0.8 mm
10:03 PM 39.9°F4.4°C 37.9°F3.3°C 92% 1.0 mph SW1.6 kmh SW 3.0 mph4.8 kmh 29.72 in1006.4 mb 0.02 in0.5 mm 0.00 in0.0 mm 0.04 in1.0 mm
10:06 PM 39.9°F4.4°C 37.9°F3.3°C 92% 1.0 mph SW1.6 kmh SW 3.0 mph4.8 kmh 29.72 in1006.4 mb 0.02 in0.5 mm 0.00 in0.0 mm 0.04 in1.0 mm
10:09 PM 39.9°F4.4°C 37.8°F3.2°C 92% 1.0 mph SSW1.6 kmh SSW 4.0 mph6.4 kmh 29.72 in1006.4 mb 0.02 in0.5 mm 0.00 in0.0 mm 0.04 in1.0 mm
10:12 PM 39.9°F4.4°C 37.9°F3.3°C 92% 2.0 mph S3.2 kmh S 4.0 mph6.4 kmh 29.71 in1006.1 mb 0.02 in0.5 mm 0.00 in0.0 mm 0.04 in1.0 mm
10:15 PM 39.9°F4.4°C 37.9°F3.3°C 92% 2.0 mph SSE3.2 kmh SSE 4.0 mph6.4 kmh 29.71 in1006.1 mb 0.02 in0.5 mm 0.00 in0.0 mm 0.04 in1.0 mm
10:18 PM 39.9°F4.4°C 37.9°F3.3°C 92% 2.0 mph SSE3.2 kmh SSE 5.0 mph8.0 kmh 29.71 in1006.1 mb 0.02 in0.5 mm 0.00 in0.0 mm 0.04 in1.0 mm
10:21 PM 40.1°F4.5°C 37.9°F3.3°C 92% 2.0 mph SE3.2 kmh SE 6.0 mph9.7 kmh 29.70 in1005.8 mb 0.02 in0.5 mm 0.00 in0.0 mm 0.04 in1.0 mm
10:24 PM 40.1°F4.5°C 38.3°F3.5°C 93% 2.0 mph SE3.2 kmh SE 6.0 mph9.7 kmh 29.70 in1005.8 mb 0.02 in0.5 mm 0.00 in0.0 mm 0.05 in1.3 mm
10:27 PM 40.1°F4.5°C 38.3°F3.5°C 93% 3.0 mph SE4.8 kmh SE 6.0 mph9.7 kmh 29.70 in1005.8 mb 0.02 in0.5 mm 0.00 in0.0 mm 0.05 in1.3 mm
10:30 PM 40.3°F4.6°C 38.3°F3.5°C 93% 3.0 mph SSE4.8 kmh SSE 6.0 mph9.7 kmh 29.70 in1005.8 mb 0.02 in0.5 mm 0.00 in0.0 mm 0.05 in1.3 mm
10:33 PM 40.3°F4.6°C 38.5°F3.6°C 93% 3.0 mph SSE4.8 kmh SSE 5.0 mph8.0 kmh 29.69 in1005.4 mb 0.02 in0.5 mm 0.00 in0.0 mm 0.05 in1.3 mm
10:36 PM 40.3°F4.6°C 38.5°F3.6°C 93% 3.0 mph SSE4.8 kmh SSE 5.0 mph8.0 kmh 29.69 in1005.4 mb 0.03 in0.8 mm 0.20 in5.1 mm 0.06 in1.5 mm
10:39 PM 40.3°F4.6°C 38.5°F3.6°C 93% 2.0 mph SSE3.2 kmh SSE 4.0 mph6.4 kmh 29.69 in1005.4 mb 0.03 in0.8 mm 0.00 in0.0 mm 0.06 in1.5 mm
10:42 PM 40.3°F4.6°C 38.5°F3.6°C 93% 2.0 mph SSE3.2 kmh SSE 4.0 mph6.4 kmh 29.69 in1005.4 mb 0.03 in0.8 mm 0.00 in0.0 mm 0.06 in1.5 mm
10:45 PM 40.5°F4.7°C 38.5°F3.6°C 93% 2.0 mph SSE3.2 kmh SSE 4.0 mph6.4 kmh 29.69 in1005.4 mb 0.03 in0.8 mm 0.00 in0.0 mm 0.06 in1.5 mm
10:48 PM 40.5°F4.7°C 38.7°F3.7°C 93% 3.0 mph SE4.8 kmh SE 4.0 mph6.4 kmh 29.68 in1005.1 mb 0.03 in0.8 mm 0.00 in0.0 mm 0.06 in1.5 mm
10:51 PM 40.5°F4.7°C 38.7°F3.7°C 93% 2.0 mph SE3.2 kmh SE 4.0 mph6.4 kmh 29.68 in1005.1 mb 0.02 in0.5 mm 0.00 in0.0 mm 0.06 in1.5 mm
10:54 PM 40.5°F4.7°C 38.7°F3.7°C 93% 2.0 mph SE3.2 kmh SE 4.0 mph6.4 kmh 29.68 in1005.1 mb 0.03 in0.8 mm 0.20 in5.1 mm 0.06 in1.5 mm
10:57 PM 40.6°F4.8°C 38.7°F3.7°C 93% 2.0 mph SE3.2 kmh SE 4.0 mph6.4 kmh 29.68 in1005.1 mb 0.03 in0.8 mm 0.00 in0.0 mm 0.06 in1.5 mm
11:00 PM 40.6°F4.8°C 39.0°F3.9°C 94% 2.0 mph SE3.2 kmh SE 4.0 mph6.4 kmh 29.68 in1005.1 mb 0.03 in0.8 mm 0.00 in0.0 mm 0.06 in1.5 mm
11:03 PM 40.8°F4.9°C 39.2°F4.0°C 94% 3.0 mph SE4.8 kmh SE 4.0 mph6.4 kmh 29.67 in1004.7 mb 0.02 in0.5 mm 0.00 in0.0 mm 0.06 in1.5 mm
11:06 PM 40.8°F4.9°C 39.4°F4.1°C 94% 3.0 mph SE4.8 kmh SE 4.0 mph6.4 kmh 29.67 in1004.7 mb 0.02 in0.5 mm 0.00 in0.0 mm 0.06 in1.5 mm
11:09 PM 40.8°F4.9°C 40.6°F4.8°C 99% 3.0 mph ESE4.8 kmh ESE 4.0 mph6.4 kmh 29.66 in1004.4 mb 0.03 in0.8 mm 0.20 in5.1 mm 0.07 in1.8 mm
11:12 PM 41.0°F5.0°C 39.4°F4.1°C 94% 3.0 mph ESE4.8 kmh ESE 6.0 mph9.7 kmh 29.66 in1004.4 mb 0.03 in0.8 mm 0.00 in0.0 mm 0.07 in1.8 mm
11:15 PM 41.2°F5.1°C 39.6°F4.2°C 94% 3.0 mph E4.8 kmh E 6.0 mph9.7 kmh 29.66 in1004.4 mb 0.03 in0.8 mm 0.00 in0.0 mm 0.07 in1.8 mm
11:18 PM 41.2°F5.1°C 39.6°F4.2°C 94% 3.0 mph E4.8 kmh E 6.0 mph9.7 kmh 29.66 in1004.4 mb 0.03 in0.8 mm 0.00 in0.0 mm 0.07 in1.8 mm
11:21 PM 41.2°F5.1°C 39.6°F4.2°C 94% 3.0 mph E4.8 kmh E 6.0 mph9.7 kmh 29.66 in1004.4 mb 0.04 in1.0 mm 0.20 in5.1 mm 0.08 in2.0 mm
11:24 PM 41.2°F5.1°C 39.6°F4.2°C 94% 3.0 mph E4.8 kmh E 4.0 mph6.4 kmh 29.65 in1004.1 mb 0.03 in0.8 mm 0.00 in0.0 mm 0.08 in2.0 mm
11:27 PM 41.2°F5.1°C 39.6°F4.2°C 94% 3.0 mph E4.8 kmh E 6.0 mph9.7 kmh 29.65 in1004.1 mb 0.04 in1.0 mm 0.20 in5.1 mm 0.09 in2.3 mm
11:30 PM 41.2°F5.1°C 39.6°F4.2°C 94% 3.0 mph E4.8 kmh E 6.0 mph9.7 kmh 29.65 in1004.1 mb 0.04 in1.0 mm 0.00 in0.0 mm 0.09 in2.3 mm
11:33 PM 41.4°F5.2°C 39.9°F4.4°C 95% 4.0 mph E6.4 kmh E 6.0 mph9.7 kmh 29.64 in1003.7 mb 0.04 in1.0 mm 0.00 in0.0 mm 0.09 in2.3 mm
11:36 PM 41.5°F5.3°C 40.1°F4.5°C 95% 4.0 mph E6.4 kmh E 7.0 mph11.3 kmh 29.64 in1003.7 mb 0.04 in1.0 mm 0.00 in0.0 mm 0.09 in2.3 mm
11:39 PM 41.5°F5.3°C 40.3°F4.6°C 95% 4.0 mph ESE6.4 kmh ESE 8.0 mph12.9 kmh 29.63 in1003.4 mb 0.04 in1.0 mm 0.00 in0.0 mm 0.09 in2.3 mm
11:42 PM 41.5°F5.3°C 39.9°F4.4°C 94% 5.0 mph ESE8.0 kmh ESE 9.0 mph14.5 kmh 29.63 in1003.4 mb 0.05 in1.3 mm 0.20 in5.1 mm 0.10 in2.5 mm
11:45 PM 41.7°F5.4°C 40.5°F4.7°C 95% 6.0 mph SE9.7 kmh SE 15.0 mph24.1 kmh 29.62 in1003.0 mb 0.05 in1.3 mm 0.00 in0.0 mm 0.10 in2.5 mm
11:48 PM 41.7°F5.4°C 40.5°F4.7°C 95% 6.0 mph SE9.7 kmh SE 15.0 mph24.1 kmh 29.62 in1003.0 mb 0.05 in1.3 mm 0.00 in0.0 mm 0.10 in2.5 mm
11:51 PM 41.5°F5.3°C 39.9°F4.4°C 94% 5.0 mph SE8.0 kmh SE 15.0 mph24.1 kmh 29.62 in1003.0 mb 0.06 in1.5 mm 0.20 in5.1 mm 0.11 in2.8 mm
11:54 PM 41.5°F5.3°C 40.1°F4.5°C 95% 5.0 mph SE8.0 kmh SE 10.0 mph16.1 kmh 29.62 in1003.0 mb 0.05 in1.3 mm 0.00 in0.0 mm 0.11 in2.8 mm
11:57 PM 41.5°F5.3°C 40.1°F4.5°C 95% 4.0 mph SE6.4 kmh SE 10.0 mph16.1 kmh 29.61 in1002.7 mb 0.05 in1.3 mm 0.00 in0.0 mm 0.11 in2.8 mm